Wetterdaten: Freitag, 04.08.2023
Datum Zeit Temp. Aussen Temp. o. S. Temp +5cm Feuchte Auss Luftdruck Regen Sonnenschein Regendauer Solar Windben Empfang
04.08.2023 00:00 15,8 C 15,0 C 12,2 C 95 % 1009,7 hPa 0,0 l/m 0 min 0 min 0 W/m 0,0 km/h (0 Bft) 97,87 %
04.08.2023 00:02 15,8 C 15,0 C 12,2 C 95 % 1009,7 hPa 0,0 l/m 0 min 0 min 0 W/m 0,0 km/h (0 Bft) 97,83 %
04.08.2023 00:04 15,8 C 15,0 C 12,2 C 95 % 1009,7 hPa 0,0 l/m 0 min 0 min 0 W/m 0,0 km/h (0 Bft) 97,87 %
04.08.2023 00:08 15,8 C 15,0 C 12,2 C 95 % 1009,6 hPa 0,0 l/m 0 min 0 min 0 W/m 3,2 km/h (1 Bft) 97,67 %
04.08.2023 00:10 15,8 C 15,0 C 12,2 C 95 % 1009,7 hPa 0,0 l/m 0 min 0 min 0 W/m 0,0 km/h (0 Bft) 97,87 %
04.08.2023 00:12 15,8 C 15,0 C 12,2 C 95 % 1009,7 hPa 0,0 l/m 0 min 0 min 0 W/m 0,0 km/h (0 Bft) 97,87 %
04.08.2023 00:14 15,8 C 15,0 C 12,2 C 95 % 1009,7 hPa 0,0 l/m 0 min 0 min 0 W/m 0,0 km/h (0 Bft) 97,83 %
04.08.2023 00:16 15,8 C 15,0 C 12,2 C 95 % 1009,7 hPa 0,0 l/m 0 min 0 min 0 W/m 0,0 km/h (0 Bft) 97,87 %
04.08.2023 00:18 15,7 C 15,0 C 12,2 C 95 % 1009,7 hPa 0,0 l/m 0 min 0 min 0 W/m 3,2 km/h (1 Bft) 93,62 %
04.08.2023 00:20 15,7 C 15,0 C 12,2 C 95 % 1009,7 hPa 0,0 l/m 0 min 0 min 0 W/m 3,2 km/h (1 Bft) 97,87 %
04.08.2023 00:22 15,7 C 15,0 C 12,2 C 95 % 1009,8 hPa 0,0 l/m 0 min 0 min 0 W/m 3,2 km/h (1 Bft) 95,74 %
04.08.2023 00:24 15,7 C 15,0 C 12,2 C 95 % 1009,8 hPa 0,0 l/m 0 min 0 min 0 W/m 3,2 km/h (1 Bft) 95,74 %
04.08.2023 00:26 15,7 C 15,0 C 12,2 C 95 % 1009,8 hPa 0,0 l/m 0 min 0 min 0 W/m 3,2 km/h (1 Bft) 95,74 %
04.08.2023 00:28 15,7 C 15,0 C 12,2 C 95 % 1009,8 hPa 0,0 l/m 0 min 0 min 0 W/m 0,0 km/h (0 Bft) 95,74 %
04.08.2023 00:30 15,7 C 15,0 C 12,2 C 95 % 1009,8 hPa 0,0 l/m 0 min 0 min 0 W/m 6,4 km/h (2 Bft) 91,30 %
04.08.2023 00:32 15,7 C 15,0 C 12,2 C 95 % 1009,9 hPa 0,0 l/m 0 min 0 min 0 W/m 3,2 km/h (1 Bft) 97,87 %
04.08.2023 00:34 15,7 C 15,0 C 12,2 C 95 % 1009,8 hPa 0,0 l/m 0 min 0 min 0 W/m 6,4 km/h (2 Bft) 97,87 %
04.08.2023 00:36 15,7 C 15,0 C 12,2 C 95 % 1009,9 hPa 0,0 l/m 0 min 0 min 0 W/m 6,4 km/h (2 Bft) 97,87 %
04.08.2023 00:38 15,7 C 15,0 C 12,2 C 95 % 1009,9 hPa 0,0 l/m 0 min 0 min 0 W/m 0,0 km/h (0 Bft) 95,74 %
04.08.2023 00:40 15,7 C 15,0 C 12,2 C 95 % 1010,0 hPa 0,0 l/m 0 min 0 min 0 W/m 6,4 km/h (2 Bft) 97,87 %
04.08.2023 00:42 15,7 C 15,0 C 12,2 C 95 % 1009,9 hPa 0,0 l/m 0 min 0 min 0 W/m 6,4 km/h (2 Bft) 100,00 %
04.08.2023 00:44 15,7 C 15,0 C 12,2 C 95 % 1010,0 hPa 0,0 l/m 0 min 0 min 0 W/m 6,4 km/h (2 Bft) 97,83 %
04.08.2023 00:46 15,7 C 15,0 C 12,2 C 95 % 1009,9 hPa 0,0 l/m 0 min 0 min 0 W/m 3,2 km/h (1 Bft) 93,62 %
04.08.2023 00:48 15,7 C 15,0 C 12,2 C 95 % 1009,9 hPa 0,0 l/m 0 min 0 min 0 W/m 3,2 km/h (1 Bft) 97,87 %
04.08.2023 00:50 15,7 C 15,0 C 12,2 C 95 % 1009,9 hPa 0,0 l/m 0 min 0 min 0 W/m 3,2 km/h (1 Bft) 97,87 %
04.08.2023 00:52 15,7 C 15,0 C 12,2 C 95 % 1010,0 hPa 0,0 l/m 0 min 0 min 0 W/m 3,2 km/h (1 Bft) 97,87 %
04.08.2023 00:54 15,7 C 15,0 C 12,2 C 95 % 1010,0 hPa 0,0 l/m 0 min 0 min 0 W/m 6,4 km/h (2 Bft) 97,87 %
04.08.2023 00:56 15,7 C 15,0 C 12,2 C 95 % 1010,0 hPa 0,0 l/m 0 min 0 min 0 W/m 6,4 km/h (2 Bft) 97,87 %
04.08.2023 00:58 15,7 C 15,0 C 12,2 C 95 % 1010,0 hPa 0,0 l/m 0 min 0 min 0 W/m 3,2 km/h (1 Bft) 95,74 %
04.08.2023 01:00 15,7 C 15,0 C 12,2 C 95 % 1010,0 hPa 0,0 l/m 0 min 0 min 0 W/m 3,2 km/h (1 Bft) 97,83 %
04.08.2023 01:02 15,7 C 15,0 C 12,2 C 95 % 1010,1 hPa 0,0 l/m 0 min 0 min 0 W/m 0,0 km/h (0 Bft) 97,87 %
04.08.2023 01:04 15,7 C 15,0 C 12,2 C 95 % 1010,1 hPa 0,0 l/m 0 min 0 min 0 W/m 3,2 km/h (1 Bft) 93,62 %
04.08.2023 01:06 15,7 C 15,0 C 11,7 C 95 % 1010,1 hPa 0,0 l/m 0 min 0 min 0 W/m 0,0 km/h (0 Bft) 96,61 %
04.08.2023 01:08 15,7 C 15,0 C 11,7 C 95 % 1010,1 hPa 0,0 l/m 0 min 0 min 0 W/m 0,0 km/h (0 Bft) 97,14 %
04.08.2023 01:10 15,7 C 15,0 C 11,7 C 95 % 1010,1 hPa 0,0 l/m 0 min 0 min 0 W/m 0,0 km/h (0 Bft) 97,87 %
04.08.2023 01:12 15,7 C 15,0 C 11,7 C 95 % 1010,1 hPa 0,0 l/m 0 min 0 min 0 W/m 0,0 km/h (0 Bft) 93,62 %
04.08.2023 01:14 15,7 C 15,0 C 11,7 C 95 % 1010,2 hPa 0,0 l/m 0 min 0 min 0 W/m 0,0 km/h (0 Bft) 95,65 %
04.08.2023 01:16 15,6 C 15,0 C 12,2 C 94 % 1010,2 hPa 0,0 l/m 0 min 0 min 0 W/m 0,0 km/h (0 Bft) 95,74 %
04.08.2023 01:18 15,6 C 15,0 C 12,2 C 94 % 1010,2 hPa 0,0 l/m 0 min 0 min 0 W/m 0,0 km/h (0 Bft) 97,87 %
04.08.2023 01:20 15,6 C 15,0 C 11,7 C 94 % 1010,1 hPa 0,0 l/m 0 min 0 min 0 W/m 3,2 km/h (1 Bft) 97,87 %
04.08.2023 01:22 15,6 C 15,0 C 11,7 C 94 % 1010,1 hPa 0,0 l/m 0 min 0 min 0 W/m 3,2 km/h (1 Bft) 100,00 %
04.08.2023 01:24 15,6 C 15,0 C 11,7 C 94 % 1010,2 hPa 0,0 l/m 0 min 0 min 0 W/m 3,2 km/h (1 Bft) 97,87 %
04.08.2023 01:26 15,6 C 14,4 C 11,7 C 94 % 1010,1 hPa 0,0 l/m 0 min 0 min 0 W/m 3,2 km/h (1 Bft) 97,87 %
04.08.2023 01:28 15,6 C 14,4 C 11,7 C 94 % 1010,1 hPa 0,0 l/m 0 min 0 min 0 W/m 3,2 km/h (1 Bft) 97,83 %
04.08.2023 01:30 15,6 C 14,4 C 11,7 C 94 % 1010,2 hPa 0,0 l/m 0 min 0 min 0 W/m 3,2 km/h (1 Bft) 97,87 %
04.08.2023 01:32 15,6 C 14,4 C 11,7 C 94 % 1010,2 hPa 0,0 l/m 0 min 0 min 0 W/m 6,4 km/h (2 Bft) 95,74 %
04.08.2023 01:34 15,5 C 14,4 C 11,7 C 94 % 1010,1 hPa 0,0 l/m 0 min 0 min 0 W/m 0,0 km/h (0 Bft) 97,87 %
04.08.2023 01:36 15,5 C 14,4 C 11,7 C 94 % 1010,2 hPa 0,0 l/m 0 min 0 min 0 W/m 3,2 km/h (1 Bft) 97,87 %
04.08.2023 01:38 15,5 C 14,4 C 11,7 C 94 % 1010,2 hPa 0,0 l/m 0 min 0 min 0 W/m 0,0 km/h (0 Bft) 97,87 %
04.08.2023 01:40 15,4 C 14,4 C 11,7 C 94 % 1010,2 hPa 0,0 l/m 0 min 0 min 0 W/m 0,0 km/h (0 Bft) 97,87 %
04.08.2023 01:42 15,4 C 14,4 C 11,7 C 94 % 1010,2 hPa 0,0 l/m 0 min 0 min 0 W/m 3,2 km/h (1 Bft) 97,83 %
04.08.2023 01:44 15,4 C 14,4 C 11,7 C 94 % 1010,2 hPa 0,0 l/m 0 min 0 min 0 W/m 0,0 km/h (0 Bft) 95,74 %
04.08.2023 01:46 15,4 C 14,4 C 11,7 C 94 % 1010,3 hPa 0,0 l/m 0 min 0 min 0 W/m 0,0 km/h (0 Bft) 97,87 %
04.08.2023 01:48 15,4 C 14,4 C 11,7 C 94 % 1010,3 hPa 0,0 l/m 0 min 0 min 0 W/m 0,0 km/h (0 Bft) 95,74 %
04.08.2023 01:50 15,4 C 14,4 C 11,7 C 94 % 1010,3 hPa 0,0 l/m 0 min 0 min 0 W/m 0,0 km/h (0 Bft) 51,16 %
04.08.2023 01:52 15,4 C 14,4 C 11,7 C 94 % 1010,3 hPa 0,0 l/m 0 min 0 min 0 W/m 3,2 km/h (1 Bft) 95,56 %
04.08.2023 01:54 15,4 C 14,4 C 11,7 C 94 % 1010,3 hPa 0,0 l/m 0 min 0 min 0 W/m 3,2 km/h (1 Bft) 95,74 %
04.08.2023 01:56 15,4 C 14,4 C 11,7 C 95 % 1010,3 hPa 0,0 l/m 0 min 0 min 0 W/m 9,7 km/h (2 Bft) 97,83 %
04.08.2023 01:58 15,3 C 14,4 C 11,7 C 94 % 1010,3 hPa 0,0 l/m 0 min 0 min 0 W/m 6,4 km/h (2 Bft) 97,87 %
04.08.2023 02:00 15,3 C 14,4 C 11,7 C 94 % 1010,4 hPa 0,0 l/m 0 min 0 min 0 W/m 3,2 km/h (1 Bft) 97,87 %
04.08.2023 02:02 15,3 C 14,4 C 11,7 C 94 % 1010,4 hPa 0,0 l/m 0 min 0 min 0 W/m 6,4 km/h (2 Bft) 97,87 %
04.08.2023 02:04 15,3 C 14,4 C 11,7 C 94 % 1010,4 hPa 0,0 l/m 0 min 0 min 0 W/m 12,9 km/h (3 Bft) 95,74 %
04.08.2023 02:06 15,3 C 14,4 C 11,7 C 94 % 1010,4 hPa 0,0 l/m 0 min 0 min 0 W/m 6,4 km/h (2 Bft) 98,28 %
04.08.2023 02:08 15,3 C 14,4 C 11,7 C 94 % 1010,4 hPa 0,0 l/m 0 min 0 min 0 W/m 3,2 km/h (1 Bft) 97,22 %
04.08.2023 02:10 15,2 C 14,4 C 11,7 C 94 % 1010,4 hPa 0,0 l/m 0 min 0 min 0 W/m 3,2 km/h (1 Bft) 97,83 %
04.08.2023 02:12 15,2 C 14,4 C 11,7 C 94 % 1010,4 hPa 0,0 l/m 0 min 0 min 0 W/m 3,2 km/h (1 Bft) 97,87 %
04.08.2023 02:14 15,2 C 14,4 C 11,7 C 94 % 1010,4 hPa 0,0 l/m 0 min 0 min 0 W/m 3,2 km/h (1 Bft) 97,87 %
04.08.2023 02:16 15,2 C 14,4 C 11,7 C 94 % 1010,4 hPa 0,0 l/m 0 min 0 min 0 W/m 6,4 km/h (2 Bft) 97,87 %
04.08.2023 02:18 15,2 C 14,4 C 11,7 C 94 % 1010,4 hPa 0,0 l/m 0 min 0 min 0 W/m 12,9 km/h (3 Bft) 97,87 %
04.08.2023 02:20 15,2 C 14,4 C 11,7 C 94 % 1010,5 hPa 0,0 l/m 0 min 0 min 0 W/m 3,2 km/h (1 Bft) 95,74 %
04.08.2023 02:22 15,2 C 14,4 C 11,7 C 94 % 1010,5 hPa 0,0 l/m 0 min 0 min 0 W/m 6,4 km/h (2 Bft) 95,74 %
04.08.2023 02:24 15,1 C 14,4 C 11,1 C 94 % 1010,5 hPa 0,0 l/m 0 min 0 min 0 W/m 3,2 km/h (1 Bft) 100,00 %
04.08.2023 02:26 15,1 C 14,4 C 11,7 C 94 % 1010,5 hPa 0,0 l/m 0 min 0 min 0 W/m 3,2 km/h (1 Bft) 100,00 %
04.08.2023 02:28 15,1 C 14,4 C 11,1 C 94 % 1010,6 hPa 0,0 l/m 0 min 0 min 0 W/m 3,2 km/h (1 Bft) 97,87 %
04.08.2023 02:30 15,1 C 14,4 C 11,1 C 94 % 1010,5 hPa 0,0 l/m 0 min 0 min 0 W/m 3,2 km/h (1 Bft) 100,00 %
04.08.2023 02:32 15,1 C 14,4 C 11,7 C 94 % 1010,5 hPa 0,0 l/m 0 min 0 min 0 W/m 3,2 km/h (1 Bft) 100,00 %
04.08.2023 02:34 15,1 C 14,4 C 11,7 C 94 % 1010,5 hPa 0,0 l/m 0 min 0 min 0 W/m 3,2 km/h (1 Bft) 100,00 %
04.08.2023 02:36 15,1 C 14,4 C 11,7 C 95 % 1010,6 hPa 0,0 l/m 0 min 0 min 0 W/m 3,2 km/h (1 Bft) 100,00 %
04.08.2023 02:38 15,1 C 14,4 C 11,1 C 95 % 1010,6 hPa 0,0 l/m 0 min 0 min 0 W/m 3,2 km/h (1 Bft) 100,00 %
04.08.2023 02:40 15,1 C 14,4 C 11,7 C 95 % 1010,6 hPa 0,0 l/m 0 min 0 min 0 W/m 3,2 km/h (1 Bft) 100,00 %
04.08.2023 02:42 15,0 C 14,4 C 11,7 C 95 % 1010,6 hPa 0,0 l/m 0 min 0 min 0 W/m 3,2 km/h (1 Bft) 100,00 %
04.08.2023 02:44 15,0 C 14,4 C 11,1 C 95 % 1010,6 hPa 0,0 l/m 0 min 0 min 0 W/m 3,2 km/h (1 Bft) 100,00 %
04.08.2023 02:46 15,0 C 14,4 C 11,1 C 95 % 1010,6 hPa 0,0 l/m 0 min 0 min 0 W/m 0,0 km/h (0 Bft) 97,87 %
04.08.2023 02:48 15,0 C 14,4 C 11,1 C 95 % 1010,6 hPa 0,0 l/m 0 min 0 min 0 W/m 0,0 km/h (0 Bft) 100,00 %
04.08.2023 02:50 15,0 C 14,4 C 11,1 C 95 % 1010,7 hPa 0,0 l/m 0 min 0 min 0 W/m 9,7 km/h (2 Bft) 97,87 %
04.08.2023 02:52 14,9 C 14,4 C 11,1 C 95 % 1010,7 hPa 0,0 l/m 0 min 0 min 0 W/m 6,4 km/h (2 Bft) 100,00 %
04.08.2023 02:54 14,9 C 14,4 C 11,1 C 95 % 1010,7 hPa 0,0 l/m 0 min 0 min 0 W/m 0,0 km/h (0 Bft) 97,83 %
04.08.2023 02:56 14,9 C 14,4 C 11,1 C 95 % 1010,7 hPa 0,0 l/m 0 min 0 min 0 W/m 0,0 km/h (0 Bft) 100,00 %
04.08.2023 02:58 14,9 C 14,4 C 11,1 C 95 % 1010,8 hPa 0,0 l/m 0 min 0 min 0 W/m 0,0 km/h (0 Bft) 100,00 %
04.08.2023 03:00 14,9 C 14,4 C 11,1 C 95 % 1010,8 hPa 0,0 l/m 0 min 0 min 0 W/m 6,4 km/h (2 Bft) 100,00 %
04.08.2023 03:02 14,9 C 14,4 C 11,1 C 95 % 1010,8 hPa 0,0 l/m 0 min 0 min 0 W/m 3,2 km/h (1 Bft) 100,00 %
04.08.2023 03:04 14,9 C 13,9 C 11,1 C 95 % 1010,8 hPa 0,0 l/m 0 min 0 min 0 W/m 3,2 km/h (1 Bft) 97,87 %
04.08.2023 03:06 14,8 C 13,9 C 11,1 C 95 % 1010,9 hPa 0,0 l/m 0 min 0 min 0 W/m 3,2 km/h (1 Bft) 98,28 %
04.08.2023 03:08 14,9 C 13,9 C 11,1 C 95 % 1010,8 hPa 0,0 l/m 0 min 0 min 0 W/m 3,2 km/h (1 Bft) 97,14 %
04.08.2023 03:10 14,8 C 13,9 C 11,1 C 95 % 1010,9 hPa 0,0 l/m 0 min 0 min 0 W/m 6,4 km/h (2 Bft) 97,87 %
04.08.2023 03:12 14,8 C 13,9 C 11,1 C 95 % 1010,9 hPa 0,0 l/m 0 min 0 min 0 W/m 3,2 km/h (1 Bft) 97,87 %
04.08.2023 03:14 14,8 C 14,4 C 11,1 C 95 % 1010,9 hPa 0,0 l/m 0 min 0 min 0 W/m 6,4 km/h (2 Bft) 97,87 %
04.08.2023 03:16 14,8 C 13,9 C 11,1 C 95 % 1010,9 hPa 0,0 l/m 0 min 0 min 0 W/m 3,2 km/h (1 Bft) 97,87 %
04.08.2023 03:18 14,8 C 13,9 C 11,1 C 95 % 1010,8 hPa 0,0 l/m 0 min 0 min 0 W/m 6,4 km/h (2 Bft) 95,12 %
04.08.2023 03:20 14,8 C 13,9 C 11,1 C 95 % 1010,8 hPa 0,0 l/m 0 min 0 min 0 W/m 3,2 km/h (1 Bft) 97,87 %
04.08.2023 03:22 14,8 C 13,9 C 11,1 C 95 % 1010,8 hPa 0,0 l/m 0 min 0 min 0 W/m 6,4 km/h (2 Bft) 98,08 %
04.08.2023 03:24 14,8 C 13,9 C 11,1 C 95 % 1010,8 hPa 0,0 l/m 0 min 0 min 0 W/m 6,4 km/h (2 Bft) 95,74 %
04.08.2023 03:26 14,8 C 13,9 C 11,1 C 95 % 1010,7 hPa 0,0 l/m 0 min 0 min 0 W/m 3,2 km/h (1 Bft) 95,74 %
04.08.2023 03:28 14,8 C 13,9 C 11,1 C 95 % 1010,7 hPa 0,0 l/m 0 min 0 min 0 W/m 3,2 km/h (1 Bft) 95,74 %
04.08.2023 03:30 14,8 C 13,9 C 11,1 C 95 % 1010,8 hPa 0,0 l/m 0 min 0 min 0 W/m 6,4 km/h (2 Bft) 97,87 %
04.08.2023 03:32 14,8 C 13,9 C 11,1 C 95 % 1010,7 hPa 0,0 l/m 0 min 0 min 0 W/m 3,2 km/h (1 Bft) 95,12 %
04.08.2023 03:34 14,8 C 13,9 C 11,1 C 95 % 1010,8 hPa 0,0 l/m 0 min 0 min 0 W/m 3,2 km/h (1 Bft) 97,87 %
04.08.2023 03:36 14,8 C 13,9 C 11,1 C 95 % 1010,8 hPa 0,0 l/m 0 min 0 min 0 W/m 3,2 km/h (1 Bft) 95,74 %
04.08.2023 03:38 14,8 C 13,9 C 11,1 C 95 % 1010,9 hPa 0,0 l/m 0 min 0 min 0 W/m 6,4 km/h (2 Bft) 96,15 %
04.08.2023 03:40 14,8 C 13,9 C 11,1 C 95 % 1010,9 hPa 0,0 l/m 0 min 0 min 0 W/m 3,2 km/h (1 Bft) 93,62 %
04.08.2023 03:42 14,7 C 13,9 C 11,1 C 95 % 1010,9 hPa 0,0 l/m 0 min 0 min 0 W/m 6,4 km/h (2 Bft) 95,74 %
04.08.2023 03:44 14,7 C 13,9 C 11,1 C 95 % 1010,9 hPa 0,0 l/m 0 min 0 min 0 W/m 3,2 km/h (1 Bft) 93,62 %
04.08.2023 03:46 14,7 C 13,9 C 11,1 C 95 % 1010,9 hPa 0,0 l/m 0 min 0 min 0 W/m 9,7 km/h (2 Bft) 97,87 %
04.08.2023 03:48 14,7 C 13,9 C 11,1 C 95 % 1010,9 hPa 0,0 l/m 0 min 0 min 0 W/m 3,2 km/h (1 Bft) 97,87 %
04.08.2023 03:50 14,8 C 13,9 C 11,1 C 95 % 1011,0 hPa 0,0 l/m 0 min 0 min 0 W/m 3,2 km/h (1 Bft) 97,87 %
04.08.2023 03:52 14,8 C 13,9 C 11,1 C 95 % 1011,0 hPa 0,0 l/m 0 min 0 min 0 W/m 3,2 km/h (1 Bft) 95,65 %
04.08.2023 03:54 14,8 C 13,9 C 11,1 C 95 % 1010,9 hPa 0,0 l/m 0 min 0 min 0 W/m 3,2 km/h (1 Bft) 97,87 %
04.08.2023 03:56 14,8 C 13,9 C 11,1 C 95 % 1011,0 hPa 0,0 l/m 0 min 0 min 0 W/m 3,2 km/h (1 Bft) 97,87 %
04.08.2023 03:58 14,8 C 13,9 C 11,1 C 95 % 1011,0 hPa 0,0 l/m 0 min 0 min 0 W/m 3,2 km/h (1 Bft) 97,87 %
04.08.2023 04:00 14,8 C 13,9 C 11,1 C 95 % 1011,0 hPa 0,0 l/m 0 min 0 min 0 W/m 3,2 km/h (1 Bft) 97,87 %
04.08.2023 04:02 14,8 C 13,9 C 11,1 C 95 % 1011,0 hPa 0,0 l/m 0 min 0 min 0 W/m 6,4 km/h (2 Bft) 100,00 %
04.08.2023 04:04 14,8 C 13,9 C 11,1 C 95 % 1011,0 hPa 0,0 l/m 0 min 0 min 0 W/m 6,4 km/h (2 Bft) 100,00 %
04.08.2023 04:06 14,8 C 13,9 C 11,1 C 95 % 1011,0 hPa 0,0 l/m 0 min 0 min 0 W/m 3,2 km/h (1 Bft) 100,00 %
04.08.2023 04:08 14,8 C 13,9 C 11,1 C 96 % 1011,0 hPa 0,0 l/m 0 min 0 min 0 W/m 3,2 km/h (1 Bft) 100,00 %
04.08.2023 04:10 14,8 C 13,9 C 11,1 C 96 % 1010,9 hPa 0,0 l/m 0 min 0 min 0 W/m 3,2 km/h (1 Bft) 97,87 %
04.08.2023 04:12 14,8 C 13,9 C 11,1 C 95 % 1011,0 hPa 0,0 l/m 0 min 0 min 0 W/m 3,2 km/h (1 Bft) 97,87 %
04.08.2023 04:14 14,8 C 13,9 C 11,1 C 96 % 1011,0 hPa 0,0 l/m 0 min 0 min 0 W/m 3,2 km/h (1 Bft) 97,87 %
04.08.2023 04:16 14,8 C 13,9 C 11,1 C 96 % 1011,0 hPa 0,0 l/m 0 min 0 min 0 W/m 0,0 km/h (0 Bft) 97,87 %
04.08.2023 04:18 14,8 C 13,9 C 11,1 C 96 % 1011,0 hPa 0,0 l/m 0 min 0 min 0 W/m 3,2 km/h (1 Bft) 95,74 %
04.08.2023 04:20 14,8 C 13,9 C 11,1 C 96 % 1011,0 hPa 0,0 l/m 0 min 0 min 0 W/m 0,0 km/h (0 Bft) 97,87 %
04.08.2023 04:22 14,8 C 13,9 C 11,1 C 96 % 1011,1 hPa 0,0 l/m 0 min 0 min 0 W/m 3,2 km/h (1 Bft) 97,83 %
04.08.2023 04:24 14,8 C 13,9 C 11,1 C 96 % 1011,1 hPa 0,0 l/m 0 min 0 min 0 W/m 3,2 km/h (1 Bft) 97,87 %
04.08.2023 04:26 14,8 C 13,9 C 11,1 C 96 % 1011,0 hPa 0,0 l/m 0 min 0 min 0 W/m 6,4 km/h (2 Bft) 95,74 %
04.08.2023 04:28 14,8 C 13,9 C 11,1 C 96 % 1011,0 hPa 0,0 l/m 0 min 0 min 0 W/m 6,4 km/h (2 Bft) 97,87 %
04.08.2023 04:30 14,8 C 13,9 C 11,1 C 96 % 1011,1 hPa 0,0 l/m 0 min 0 min 0 W/m 3,2 km/h (1 Bft) 97,87 %
04.08.2023 04:32 14,8 C 13,9 C 11,1 C 96 % 1011,1 hPa 0,0 l/m 0 min 0 min 0 W/m 3,2 km/h (1 Bft) 97,87 %
04.08.2023 04:34 14,8 C 13,9 C 11,1 C 96 % 1011,1 hPa 0,0 l/m 0 min 0 min 0 W/m 3,2 km/h (1 Bft) 97,83 %
04.08.2023 04:36 14,8 C 13,9 C 11,1 C 96 % 1011,1 hPa 0,0 l/m 0 min 0 min 0 W/m 6,4 km/h (2 Bft) 97,87 %
04.08.2023 04:38 14,8 C 13,9 C 11,1 C 96 % 1011,1 hPa 0,0 l/m 0 min 0 min 0 W/m 3,2 km/h (1 Bft) 97,87 %
04.08.2023 04:40 14,7 C 13,9 C 11,1 C 96 % 1011,1 hPa 0,0 l/m 0 min 0 min 0 W/m 3,2 km/h (1 Bft) 97,87 %
04.08.2023 04:42 14,8 C 13,9 C 11,1 C 96 % 1011,2 hPa 0,0 l/m 0 min 0 min 0 W/m 3,2 km/h (1 Bft) 95,74 %
04.08.2023 04:44 14,7 C 13,9 C 11,1 C 96 % 1011,2 hPa 0,0 l/m 0 min 0 min 0 W/m 3,2 km/h (1 Bft) 97,87 %
04.08.2023 04:46 14,8 C 13,9 C 11,1 C 96 % 1011,1 hPa 0,0 l/m 0 min 0 min 0 W/m 3,2 km/h (1 Bft) 97,87 %
04.08.2023 04:48 14,7 C 13,9 C 11,1 C 96 % 1011,2 hPa 0,0 l/m 0 min 0 min 0 W/m 6,4 km/h (2 Bft) 97,87 %
04.08.2023 04:50 14,7 C 13,9 C 11,1 C 96 % 1011,2 hPa 0,0 l/m 0 min 0 min 0 W/m 3,2 km/h (1 Bft) 95,65 %
04.08.2023 04:52 14,7 C 13,9 C 11,1 C 96 % 1011,2 hPa 0,0 l/m 0 min 0 min 0 W/m 3,2 km/h (1 Bft) 97,87 %
04.08.2023 04:54 14,8 C 13,9 C 11,1 C 96 % 1011,2 hPa 0,0 l/m 0 min 0 min 0 W/m 3,2 km/h (1 Bft) 97,87 %
04.08.2023 04:56 14,8 C 13,9 C 11,1 C 96 % 1011,2 hPa 0,0 l/m 0 min 0 min 0 W/m 3,2 km/h (1 Bft) 97,87 %
04.08.2023 04:58 14,7 C 13,9 C 11,1 C 96 % 1011,2 hPa 0,0 l/m 0 min 0 min 0 W/m 3,2 km/h (1 Bft) 97,87 %
04.08.2023 05:00 14,7 C 13,9 C 11,1 C 96 % 1011,3 hPa 0,0 l/m 0 min 0 min 0 W/m 0,0 km/h (0 Bft) 93,62 %
04.08.2023 05:02 14,7 C 13,9 C 11,1 C 96 % 1011,3 hPa 0,0 l/m 0 min 0 min 0 W/m 0,0 km/h (0 Bft) 100,00 %
04.08.2023 05:04 14,7 C 13,9 C 11,1 C 96 % 1011,3 hPa 0,0 l/m 0 min 0 min 0 W/m 3,2 km/h (1 Bft) 100,00 %
04.08.2023 05:06 14,7 C 13,9 C 11,1 C 96 % 1011,3 hPa 0,0 l/m 0 min 0 min 0 W/m 3,2 km/h (1 Bft) 97,87 %
04.08.2023 05:08 14,7 C 13,9 C 11,1 C 96 % 1011,3 hPa 0,0 l/m 0 min 0 min 0 W/m 3,2 km/h (1 Bft) 100,00 %
04.08.2023 05:10 14,7 C 13,9 C 11,1 C 96 % 1011,3 hPa 0,0 l/m 0 min 0 min 0 W/m 0,0 km/h (0 Bft) 100,00 %
04.08.2023 05:12 14,7 C 13,9 C 11,1 C 96 % 1011,4 hPa 0,0 l/m 0 min 0 min 0 W/m 0,0 km/h (0 Bft) 100,00 %
04.08.2023 05:14 14,7 C 13,9 C 11,1 C 96 % 1011,4 hPa 0,0 l/m 0 min 0 min 0 W/m 3,2 km/h (1 Bft) 100,00 %
04.08.2023 05:16 14,7 C 13,9 C 11,1 C 96 % 1011,4 hPa 0,0 l/m 0 min 0 min 0 W/m 3,2 km/h (1 Bft) 100,00 %
04.08.2023 05:18 14,7 C 13,9 C 11,1 C 96 % 1011,4 hPa 0,0 l/m 0 min 0 min 0 W/m 3,2 km/h (1 Bft) 100,00 %
04.08.2023 05:20 14,7 C 13,9 C 11,1 C 96 % 1011,4 hPa 0,0 l/m 0 min 0 min 0 W/m 3,2 km/h (1 Bft) 100,00 %
04.08.2023 05:22 14,6 C 13,9 C 11,1 C 96 % 1011,4 hPa 0,0 l/m 0 min 0 min 0 W/m 0,0 km/h (0 Bft) 97,87 %
04.08.2023 05:24 14,6 C 13,9 C 11,1 C 96 % 1011,4 hPa 0,0 l/m 0 min 0 min 0 W/m 3,2 km/h (1 Bft) 97,87 %
04.08.2023 05:26 14,6 C 13,9 C 11,1 C 96 % 1011,4 hPa 0,0 l/m 0 min 0 min 0 W/m 3,2 km/h (1 Bft) 97,87 %
04.08.2023 05:28 14,6 C 13,9 C 11,1 C 96 % 1011,5 hPa 0,0 l/m 0 min 0 min 0 W/m 3,2 km/h (1 Bft) 97,87 %
04.08.2023 05:30 14,6 C 13,3 C 10,6 C 96 % 1011,4 hPa 0,0 l/m 0 min 0 min 0 W/m 6,4 km/h (2 Bft) 97,87 %
04.08.2023 05:32 14,5 C 13,3 C 10,6 C 96 % 1011,5 hPa 0,0 l/m 0 min 0 min 0 W/m 3,2 km/h (1 Bft) 95,74 %
04.08.2023 05:34 14,5 C 13,3 C 10,6 C 96 % 1011,5 hPa 0,0 l/m 0 min 0 min 0 W/m 3,2 km/h (1 Bft) 97,87 %
04.08.2023 05:36 14,4 C 13,3 C 10,6 C 96 % 1011,5 hPa 0,0 l/m 0 min 0 min 0 W/m 3,2 km/h (1 Bft) 97,83 %
04.08.2023 05:38 14,4 C 13,3 C 10,6 C 96 % 1011,5 hPa 0,0 l/m 0 min 0 min 0 W/m 3,2 km/h (1 Bft) 95,74 %
04.08.2023 05:40 14,4 C 13,9 C 10,6 C 96 % 1011,5 hPa 0,0 l/m 0 min 0 min 0 W/m 3,2 km/h (1 Bft) 97,87 %
04.08.2023 05:42 14,4 C 13,9 C 10,6 C 96 % 1011,6 hPa 0,0 l/m 0 min 0 min 0 W/m 3,2 km/h (1 Bft) 95,74 %
04.08.2023 05:44 14,4 C 13,9 C 10,6 C 96 % 1011,6 hPa 0,0 l/m 0 min 0 min 0 W/m 3,2 km/h (1 Bft) 97,87 %
04.08.2023 05:46 14,4 C 13,9 C 10,6 C 96 % 1011,5 hPa 0,0 l/m 0 min 0 min 0 W/m 3,2 km/h (1 Bft) 95,74 %
04.08.2023 05:48 14,4 C 13,9 C 10,6 C 96 % 1011,6 hPa 0,0 l/m 0 min 0 min 0 W/m 0,0 km/h (0 Bft) 91,49 %
04.08.2023 05:50 14,4 C 13,9 C 11,1 C 96 % 1011,6 hPa 0,0 l/m 0 min 0 min 0 W/m 3,2 km/h (1 Bft) 95,74 %
04.08.2023 05:52 14,4 C 13,9 C 11,1 C 96 % 1011,6 hPa 0,0 l/m 0 min 0 min 0 W/m 3,2 km/h (1 Bft) 96,30 %
04.08.2023 05:54 14,4 C 13,9 C 11,1 C 96 % 1011,6 hPa 0,0 l/m 0 min 0 min 0 W/m 3,2 km/h (1 Bft) 96,00 %
04.08.2023 05:56 14,4 C 13,9 C 10,6 C 96 % 1011,7 hPa 0,0 l/m 0 min 0 min 0 W/m 0,0 km/h (0 Bft) 97,92 %
04.08.2023 05:58 14,4 C 13,9 C 11,1 C 96 % 1011,7 hPa 0,0 l/m 0 min 0 min 0 W/m 0,0 km/h (0 Bft) 95,74 %
04.08.2023 06:00 14,4 C 13,9 C 10,6 C 96 % 1011,6 hPa 0,0 l/m 0 min 0 min 0 W/m 0,0 km/h (0 Bft) 97,14 %
04.08.2023 06:02 14,4 C 13,9 C 10,6 C 96 % 1011,6 hPa 0,0 l/m 0 min 0 min 0 W/m 0,0 km/h (0 Bft) 98,18 %
04.08.2023 06:04 14,4 C 13,9 C 10,6 C 96 % 1011,6 hPa 0,0 l/m 0 min 0 min 0 W/m 0,0 km/h (0 Bft) 97,96 %
04.08.2023 06:07 14,4 C 13,9 C 10,6 C 97 % 1011,7 hPa 0,0 l/m 0 min 0 min 0 W/m 0,0 km/h (0 Bft) 97,96 %
04.08.2023 06:08 14,4 C 13,9 C 10,6 C 97 % 1011,7 hPa 0,0 l/m 0 min 0 min 0 W/m 0,0 km/h (0 Bft) 96,91 %
04.08.2023 06:12 14,4 C 13,9 C 11,1 C 97 % 1011,7 hPa 0,0 l/m 0 min 0 min 5 W/m 0,0 km/h (0 Bft) 95,12 %
04.08.2023 06:14 14,4 C 13,9 C 10,6 C 97 % 1011,7 hPa 0,0 l/m 0 min 0 min 5 W/m 0,0 km/h (0 Bft) 97,87 %
04.08.2023 06:16 14,3 C 13,3 C 10,6 C 96 % 1011,6 hPa 0,0 l/m 0 min 0 min 6 W/m 0,0 km/h (0 Bft) 97,87 %
04.08.2023 06:18 14,3 C 13,9 C 10,6 C 96 % 1011,7 hPa 0,0 l/m 0 min 0 min 7 W/m 0,0 km/h (0 Bft) 97,87 %
04.08.2023 06:20 14,3 C 13,9 C 10,6 C 96 % 1011,7 hPa 0,0 l/m 0 min 0 min 8 W/m 3,2 km/h (1 Bft) 95,74 %
04.08.2023 06:22 14,3 C 13,9 C 10,6 C 96 % 1011,8 hPa 0,0 l/m 0 min 0 min 9 W/m 3,2 km/h (1 Bft) 97,87 %
04.08.2023 06:24 14,3 C 13,9 C 10,6 C 96 % 1011,8 hPa 0,0 l/m 0 min 0 min 9 W/m 3,2 km/h (1 Bft) 97,87 %
04.08.2023 06:26 14,3 C 13,3 C 10,6 C 96 % 1011,9 hPa 0,0 l/m 0 min 0 min 11 W/m 3,2 km/h (1 Bft) 97,83 %
04.08.2023 06:28 14,3 C 13,9 C 10,6 C 96 % 1011,9 hPa 0,0 l/m 0 min 0 min 12 W/m 3,2 km/h (1 Bft) 95,74 %
04.08.2023 06:30 14,3 C 13,9 C 10,6 C 96 % 1011,9 hPa 0,0 l/m 0 min 0 min 13 W/m 3,2 km/h (1 Bft) 97,87 %
04.08.2023 06:32 14,3 C 13,9 C 10,6 C 97 % 1011,9 hPa 0,0 l/m 0 min 0 min 15 W/m 0,0 km/h (0 Bft) 97,87 %
04.08.2023 06:34 14,3 C 13,9 C 10,6 C 97 % 1011,9 hPa 0,0 l/m 0 min 0 min 16 W/m 0,0 km/h (0 Bft) 97,87 %
04.08.2023 06:36 14,3 C 13,9 C 10,6 C 97 % 1011,9 hPa 0,0 l/m 0 min 0 min 18 W/m 0,0 km/h (0 Bft) 97,87 %
04.08.2023 06:38 14,3 C 13,9 C 10,6 C 97 % 1011,9 hPa 0,0 l/m 0 min 0 min 18 W/m 3,2 km/h (1 Bft) 100,00 %
04.08.2023 06:40 14,3 C 13,9 C 10,6 C 97 % 1012,0 hPa 0,0 l/m 0 min 0 min 19 W/m 3,2 km/h (1 Bft) 97,83 %
04.08.2023 06:42 14,3 C 13,9 C 11,1 C 97 % 1011,9 hPa 0,0 l/m 0 min 0 min 21 W/m 3,2 km/h (1 Bft) 100,00 %
04.08.2023 06:44 14,3 C 13,9 C 11,1 C 97 % 1012,0 hPa 0,0 l/m 0 min 0 min 21 W/m 3,2 km/h (1 Bft) 100,00 %
04.08.2023 06:46 14,3 C 13,9 C 11,1 C 97 % 1012,0 hPa 0,0 l/m 0 min 0 min 21 W/m 3,2 km/h (1 Bft) 100,00 %
04.08.2023 06:48 14,3 C 13,9 C 11,1 C 97 % 1012,1 hPa 0,0 l/m 0 min 0 min 21 W/m 3,2 km/h (1 Bft) 100,00 %
04.08.2023 06:50 14,3 C 13,9 C 11,1 C 97 % 1012,1 hPa 0,0 l/m 0 min 0 min 21 W/m 3,2 km/h (1 Bft) 97,87 %
04.08.2023 06:52 14,3 C 13,9 C 11,1 C 97 % 1012,1 hPa 0,0 l/m 0 min 0 min 23 W/m 3,2 km/h (1 Bft) 100,00 %
04.08.2023 06:54 14,3 C 13,9 C 11,1 C 97 % 1012,1 hPa 0,0 l/m 0 min 0 min 25 W/m 3,2 km/h (1 Bft) 100,00 %
04.08.2023 06:56 14,3 C 13,9 C 11,1 C 97 % 1012,1 hPa 0,0 l/m 0 min 0 min 26 W/m 0,0 km/h (0 Bft) 100,00 %
04.08.2023 06:58 14,3 C 13,9 C 11,1 C 97 % 1012,1 hPa 0,0 l/m 0 min 0 min 26 W/m 3,2 km/h (1 Bft) 100,00 %
04.08.2023 07:00 14,3 C 13,9 C 11,1 C 97 % 1012,1 hPa 0,0 l/m 0 min 0 min 30 W/m 3,2 km/h (1 Bft) 100,00 %
04.08.2023 07:02 14,4 C 13,9 C 11,1 C 97 % 1012,1 hPa 0,0 l/m 0 min 0 min 34 W/m 0,0 km/h (0 Bft) 97,87 %
04.08.2023 07:04 14,3 C 13,9 C 11,1 C 97 % 1012,1 hPa 0,0 l/m 0 min 0 min 37 W/m 0,0 km/h (0 Bft) 100,00 %
04.08.2023 07:06 14,4 C 13,9 C 11,1 C 97 % 1012,1 hPa 0,0 l/m 0 min 0 min 39 W/m 6,4 km/h (2 Bft) 100,00 %
04.08.2023 07:08 14,4 C 13,9 C 11,1 C 97 % 1012,1 hPa 0,0 l/m 0 min 0 min 39 W/m 3,2 km/h (1 Bft) 100,00 %
04.08.2023 07:10 14,4 C 13,9 C 11,1 C 97 % 1012,1 hPa 0,0 l/m 0 min 0 min 38 W/m 3,2 km/h (1 Bft) 95,74 %
04.08.2023 07:12 14,4 C 13,9 C 11,1 C 97 % 1012,1 hPa 0,0 l/m 0 min 0 min 38 W/m 3,2 km/h (1 Bft) 100,00 %
04.08.2023 07:14 14,4 C 13,9 C 11,1 C 97 % 1012,1 hPa 0,0 l/m 0 min 0 min 40 W/m 0,0 km/h (0 Bft) 97,83 %
04.08.2023 07:16 14,5 C 14,4 C 11,1 C 97 % 1012,2 hPa 0,0 l/m 0 min 0 min 43 W/m 6,4 km/h (2 Bft) 95,74 %
04.08.2023 07:18 14,5 C 14,4 C 11,1 C 97 % 1012,1 hPa 0,0 l/m 0 min 0 min 44 W/m 3,2 km/h (1 Bft) 95,74 %
04.08.2023 07:20 14,5 C 14,4 C 11,1 C 97 % 1012,1 hPa 0,0 l/m 0 min 0 min 46 W/m 3,2 km/h (1 Bft) 93,62 %
04.08.2023 07:22 14,6 C 14,4 C 11,1 C 97 % 1012,1 hPa 0,0 l/m 0 min 0 min 47 W/m 3,2 km/h (1 Bft) 95,74 %
04.08.2023 07:24 14,6 C 14,4 C 11,1 C 97 % 1012,1 hPa 0,0 l/m 0 min 0 min 47 W/m 3,2 km/h (1 Bft) 95,74 %
04.08.2023 07:26 14,6 C 14,4 C 11,1 C 97 % 1012,1 hPa 0,0 l/m 0 min 0 min 47 W/m 3,2 km/h (1 Bft) 95,74 %
04.08.2023 07:28 14,6 C 14,4 C 11,1 C 97 % 1012,2 hPa 0,0 l/m 0 min 0 min 47 W/m 3,2 km/h (1 Bft) 95,65 %
04.08.2023 07:30 14,6 C 14,4 C 11,1 C 97 % 1012,3 hPa 0,0 l/m 0 min 0 min 48 W/m 3,2 km/h (1 Bft) 95,74 %
04.08.2023 07:32 14,6 C 14,4 C 11,1 C 97 % 1012,2 hPa 0,0 l/m 0 min 0 min 49 W/m 3,2 km/h (1 Bft) 93,62 %
04.08.2023 07:34 14,6 C 14,4 C 11,7 C 97 % 1012,3 hPa 0,0 l/m 0 min 0 min 51 W/m 6,4 km/h (2 Bft) 95,74 %
04.08.2023 07:36 14,6 C 14,4 C 11,7 C 97 % 1012,3 hPa 0,0 l/m 0 min 0 min 55 W/m 6,4 km/h (2 Bft) 93,62 %
04.08.2023 07:38 14,6 C 14,4 C 11,7 C 97 % 1012,4 hPa 0,0 l/m 0 min 0 min 58 W/m 3,2 km/h (1 Bft) 93,62 %
04.08.2023 07:40 14,6 C 14,4 C 11,7 C 97 % 1012,3 hPa 0,0 l/m 0 min 0 min 58 W/m 0,0 km/h (0 Bft) 95,74 %
04.08.2023 07:42 14,7 C 14,4 C 11,7 C 97 % 1012,4 hPa 0,0 l/m 0 min 0 min 62 W/m 3,2 km/h (1 Bft) 95,65 %
04.08.2023 07:44 14,7 C 14,4 C 11,7 C 97 % 1012,3 hPa 0,0 l/m 0 min 0 min 69 W/m 3,2 km/h (1 Bft) 95,74 %
04.08.2023 07:46 14,7 C 14,4 C 11,7 C 97 % 1012,3 hPa 0,0 l/m 0 min 0 min 76 W/m 6,4 km/h (2 Bft) 97,87 %
04.08.2023 07:48 14,7 C 14,4 C 11,7 C 97 % 1012,4 hPa 0,0 l/m 0 min 0 min 74 W/m 3,2 km/h (1 Bft) 95,74 %
04.08.2023 07:50 14,8 C 15,0 C 11,7 C 97 % 1012,4 hPa 0,0 l/m 0 min 0 min 71 W/m 0,0 km/h (0 Bft) 93,62 %
04.08.2023 07:52 14,8 C 15,0 C 11,7 C 97 % 1012,4 hPa 0,0 l/m 0 min 0 min 70 W/m 3,2 km/h (1 Bft) 95,74 %
04.08.2023 07:54 14,8 C 14,4 C 11,7 C 97 % 1012,5 hPa 0,0 l/m 0 min 0 min 69 W/m 3,2 km/h (1 Bft) 97,87 %
04.08.2023 07:56 14,8 C 14,4 C 11,7 C 97 % 1012,5 hPa 0,0 l/m 0 min 0 min 68 W/m 3,2 km/h (1 Bft) 95,74 %
04.08.2023 07:58 14,8 C 15,0 C 11,7 C 97 % 1012,6 hPa 0,0 l/m 0 min 0 min 66 W/m 3,2 km/h (1 Bft) 97,83 %
04.08.2023 08:00 14,9 C 15,0 C 11,7 C 97 % 1012,6 hPa 0,0 l/m 0 min 0 min 65 W/m 0,0 km/h (0 Bft) 97,87 %
04.08.2023 08:02 14,9 C 15,0 C 11,7 C 97 % 1012,6 hPa 0,0 l/m 0 min 0 min 65 W/m 0,0 km/h (0 Bft) 95,74 %
04.08.2023 08:04 14,9 C 15,0 C 11,7 C 97 % 1012,6 hPa 0,0 l/m 0 min 0 min 64 W/m 6,4 km/h (2 Bft) 100,00 %
04.08.2023 08:06 14,9 C 15,0 C 11,7 C 97 % 1012,6 hPa 0,0 l/m 0 min 0 min 62 W/m 3,2 km/h (1 Bft) 100,00 %
04.08.2023 08:08 14,9 C 15,0 C 11,7 C 97 % 1012,6 hPa 0,0 l/m 0 min 0 min 60 W/m 6,4 km/h (2 Bft) 100,00 %
04.08.2023 08:10 14,9 C 15,0 C 11,7 C 97 % 1012,6 hPa 0,0 l/m 0 min 0 min 58 W/m 3,2 km/h (1 Bft) 97,87 %
04.08.2023 08:12 14,9 C 14,4 C 11,7 C 97 % 1012,7 hPa 0,0 l/m 0 min 0 min 57 W/m 3,2 km/h (1 Bft) 97,83 %
04.08.2023 08:14 14,9 C 15,0 C 11,7 C 97 % 1012,7 hPa 0,0 l/m 0 min 0 min 56 W/m 3,2 km/h (1 Bft) 100,00 %
04.08.2023 08:16 14,9 C 15,0 C 11,7 C 96 % 1012,7 hPa 0,0 l/m 0 min 0 min 57 W/m 6,4 km/h (2 Bft) 100,00 %
04.08.2023 08:18 15,0 C 15,0 C 11,7 C 96 % 1012,7 hPa 0,0 l/m 0 min 0 min 59 W/m 3,2 km/h (1 Bft) 97,87 %
04.08.2023 08:20 15,0 C 15,0 C 11,7 C 96 % 1012,7 hPa 0,0 l/m 0 min 0 min 63 W/m 0,0 km/h (0 Bft) 100,00 %
04.08.2023 08:22 15,1 C 15,0 C 11,7 C 96 % 1012,7 hPa 0,0 l/m 0 min 0 min 67 W/m 6,4 km/h (2 Bft) 100,00 %
04.08.2023 08:24 15,1 C 15,0 C 11,7 C 96 % 1012,8 hPa 0,0 l/m 0 min 0 min 71 W/m 3,2 km/h (1 Bft) 97,87 %
04.08.2023 08:26 15,0 C 15,0 C 11,7 C 96 % 1012,8 hPa 0,0 l/m 0 min 0 min 76 W/m 3,2 km/h (1 Bft) 97,83 %
04.08.2023 08:28 15,1 C 15,0 C 11,7 C 96 % 1012,8 hPa 0,0 l/m 0 min 0 min 83 W/m 6,4 km/h (2 Bft) 100,00 %
04.08.2023 08:30 15,1 C 15,0 C 11,7 C 96 % 1012,8 hPa 0,0 l/m 0 min 0 min 86 W/m 0,0 km/h (0 Bft) 52,38 %
04.08.2023 08:32 15,1 C 15,0 C 11,7 C 96 % 1012,9 hPa 0,0 l/m 0 min 0 min 91 W/m 3,2 km/h (1 Bft) 100,00 %
04.08.2023 08:34 15,1 C 15,0 C 12,2 C 96 % 1012,9 hPa 0,0 l/m 0 min 0 min 92 W/m 0,0 km/h (0 Bft) 98,18 %
04.08.2023 08:36 15,2 C 15,0 C 12,2 C 96 % 1013,0 hPa 0,0 l/m 0 min 0 min 96 W/m 3,2 km/h (1 Bft) 97,37 %
04.08.2023 08:38 15,2 C 15,6 C 12,2 C 96 % 1012,9 hPa 0,0 l/m 0 min 0 min 98 W/m 3,2 km/h (1 Bft) 97,92 %
04.08.2023 08:40 15,2 C 15,6 C 12,2 C 96 % 1013,0 hPa 0,0 l/m 0 min 0 min 101 W/m 3,2 km/h (1 Bft) 97,87 %
04.08.2023 08:42 15,3 C 15,6 C 12,2 C 96 % 1013,0 hPa 0,0 l/m 0 min 0 min 105 W/m 3,2 km/h (1 Bft) 97,83 %
04.08.2023 08:44 15,3 C 15,6 C 12,2 C 96 % 1013,0 hPa 0,0 l/m 0 min 0 min 108 W/m 6,4 km/h (2 Bft) 95,74 %
04.08.2023 08:46 15,3 C 15,6 C 12,2 C 96 % 1013,0 hPa 0,0 l/m 0 min 0 min 111 W/m 3,2 km/h (1 Bft) 97,87 %
04.08.2023 08:48 15,3 C 15,6 C 12,2 C 96 % 1013,0 hPa 0,0 l/m 0 min 0 min 111 W/m 3,2 km/h (1 Bft) 93,62 %
04.08.2023 08:50 15,4 C 15,6 C 12,2 C 96 % 1013,0 hPa 0,0 l/m 0 min 0 min 114 W/m 3,2 km/h (1 Bft) 97,87 %
04.08.2023 08:52 15,4 C 15,6 C 12,2 C 96 % 1013,1 hPa 0,0 l/m 0 min 0 min 118 W/m 3,2 km/h (1 Bft) 97,87 %
04.08.2023 08:54 15,4 C 15,6 C 12,2 C 96 % 1013,1 hPa 0,0 l/m 0 min 0 min 121 W/m 6,4 km/h (2 Bft) 97,87 %
04.08.2023 08:56 15,4 C 15,6 C 12,2 C 96 % 1013,1 hPa 0,0 l/m 0 min 0 min 123 W/m 0,0 km/h (0 Bft) 95,65 %
04.08.2023 08:58 15,5 C 15,6 C 12,2 C 96 % 1013,1 hPa 0,0 l/m 0 min 0 min 127 W/m 0,0 km/h (0 Bft) 95,74 %
04.08.2023 09:00 15,5 C 15,6 C 12,8 C 96 % 1013,1 hPa 0,0 l/m 0 min 0 min 130 W/m 0,0 km/h (0 Bft) 97,87 %
04.08.2023 09:02 15,6 C 15,6 C 12,8 C 96 % 1013,2 hPa 0,0 l/m 0 min 0 min 131 W/m 0,0 km/h (0 Bft) 95,74 %
04.08.2023 09:04 15,6 C 15,6 C 12,8 C 96 % 1013,2 hPa 0,0 l/m 0 min 0 min 134 W/m 0,0 km/h (0 Bft) 98,00 %
04.08.2023 09:06 15,6 C 16,1 C 12,8 C 96 % 1013,2 hPa 0,0 l/m 0 min 0 min 139 W/m 0,0 km/h (0 Bft) 95,74 %
04.08.2023 09:08 15,6 C 16,1 C 12,8 C 96 % 1013,2 hPa 0,0 l/m 0 min 0 min 144 W/m 0,0 km/h (0 Bft) 95,12 %
04.08.2023 09:10 15,7 C 16,1 C 12,8 C 96 % 1013,3 hPa 0,0 l/m 0 min 0 min 148 W/m 0,0 km/h (0 Bft) 96,61 %
04.08.2023 09:12 15,7 C 16,1 C 12,8 C 96 % 1013,3 hPa 0,0 l/m 0 min 0 min 152 W/m 0,0 km/h (0 Bft) 91,43 %
04.08.2023 09:14 15,7 C 16,1 C 12,8 C 96 % 1013,3 hPa 0,0 l/m 0 min 0 min 159 W/m 0,0 km/h (0 Bft) 95,74 %
04.08.2023 09:16 15,8 C 16,1 C 12,8 C 96 % 1013,3 hPa 0,0 l/m 0 min 0 min 169 W/m 0,0 km/h (0 Bft) 95,74 %
04.08.2023 09:18 15,8 C 16,1 C 12,8 C 96 % 1013,3 hPa 0,0 l/m 0 min 0 min 175 W/m 0,0 km/h (0 Bft) 95,74 %
04.08.2023 09:20 15,9 C 16,7 C 12,8 C 96 % 1013,4 hPa 0,0 l/m 0 min 0 min 178 W/m 0,0 km/h (0 Bft) 93,62 %
04.08.2023 09:22 15,9 C 16,7 C 12,8 C 96 % 1013,4 hPa 0,0 l/m 0 min 0 min 186 W/m 0,0 km/h (0 Bft) 93,62 %
04.08.2023 09:24 16,0 C 16,7 C 12,8 C 95 % 1013,4 hPa 0,0 l/m 0 min 0 min 188 W/m 0,0 km/h (0 Bft) 91,30 %
04.08.2023 09:26 16,0 C 16,7 C 13,3 C 95 % 1013,4 hPa 0,0 l/m 0 min 0 min 195 W/m 0,0 km/h (0 Bft) 95,74 %
04.08.2023 09:28 16,1 C 16,7 C 13,3 C 95 % 1013,4 hPa 0,0 l/m 0 min 0 min 193 W/m 0,0 km/h (0 Bft) 95,74 %
04.08.2023 09:30 16,1 C 16,7 C 13,3 C 95 % 1013,4 hPa 0,0 l/m 0 min 0 min 179 W/m 0,0 km/h (0 Bft) 94,00 %
04.08.2023 09:32 16,1 C 16,7 C 13,3 C 95 % 1013,4 hPa 0,0 l/m 0 min 0 min 161 W/m 3,2 km/h (1 Bft) 95,74 %
04.08.2023 09:34 16,2 C 16,7 C 13,3 C 95 % 1013,4 hPa 0,0 l/m 0 min 0 min 182 W/m 6,4 km/h (2 Bft) 95,74 %
04.08.2023 09:36 16,2 C 16,7 C 13,3 C 95 % 1013,4 hPa 0,0 l/m 0 min 0 min 197 W/m 9,7 km/h (2 Bft) 97,87 %
04.08.2023 09:38 16,3 C 16,7 C 13,3 C 95 % 1013,4 hPa 0,0 l/m 0 min 0 min 186 W/m 9,7 km/h (2 Bft) 97,83 %
04.08.2023 09:40 16,3 C 16,7 C 13,3 C 95 % 1013,4 hPa 0,0 l/m 0 min 0 min 181 W/m 3,2 km/h (1 Bft) 97,87 %
04.08.2023 09:42 16,3 C 16,7 C 13,3 C 95 % 1013,4 hPa 0,0 l/m 0 min 0 min 172 W/m 6,4 km/h (2 Bft) 97,87 %
04.08.2023 09:44 16,4 C 16,7 C 13,3 C 95 % 1013,5 hPa 0,0 l/m 0 min 0 min 177 W/m 6,4 km/h (2 Bft) 97,87 %
04.08.2023 09:46 16,4 C 16,7 C 13,3 C 94 % 1013,4 hPa 0,0 l/m 0 min 0 min 191 W/m 6,4 km/h (2 Bft) 100,00 %
04.08.2023 09:48 16,4 C 16,7 C 13,3 C 94 % 1013,4 hPa 0,0 l/m 0 min 0 min 215 W/m 6,4 km/h (2 Bft) 100,00 %
04.08.2023 09:50 16,4 C 17,2 C 13,3 C 94 % 1013,4 hPa 0,0 l/m 0 min 0 min 264 W/m 3,2 km/h (1 Bft) 97,87 %
04.08.2023 09:52 16,6 C 18,9 C 13,9 C 94 % 1013,4 hPa 0,0 l/m 2 min 0 min 496 W/m 3,2 km/h (1 Bft) 100,00 %
04.08.2023 09:54 16,7 C 19,4 C 13,9 C 94 % 1013,4 hPa 0,0 l/m 2 min 0 min 602 W/m 9,7 km/h (2 Bft) 100,00 %
04.08.2023 09:56 16,8 C 19,4 C 13,9 C 94 % 1013,4 hPa 0,0 l/m 2 min 0 min 354 W/m 6,4 km/h (2 Bft) 100,00 %
04.08.2023 09:58 16,8 C 18,9 C 13,9 C 94 % 1013,4 hPa 0,0 l/m 0 min 0 min 217 W/m 9,7 km/h (2 Bft) 97,87 %
04.08.2023 10:00 16,9 C 18,9 C 13,9 C 94 % 1013,4 hPa 0,0 l/m 0 min 0 min 209 W/m 6,4 km/h (2 Bft) 100,00 %
04.08.2023 10:02 16,9 C 18,3 C 13,9 C 93 % 1013,5 hPa 0,0 l/m 0 min 0 min 167 W/m 3,2 km/h (1 Bft) 97,87 %
04.08.2023 10:04 16,9 C 17,8 C 13,9 C 93 % 1013,4 hPa 0,0 l/m 0 min 0 min 171 W/m 3,2 km/h (1 Bft) 97,87 %
04.08.2023 10:07 16,9 C 17,8 C 13,9 C 92 % 1013,4 hPa 0,0 l/m 0 min 0 min 172 W/m 3,2 km/h (1 Bft) 97,22 %
04.08.2023 10:08 16,9 C 18,3 C 13,9 C 92 % 1013,4 hPa 0,0 l/m 0 min 0 min 160 W/m 0,0 km/h (0 Bft) 100,00 %
04.08.2023 10:10 17,1 C 18,9 C 13,9 C 93 % 1013,5 hPa 0,0 l/m 2 min 0 min 535 W/m 12,9 km/h (3 Bft) 93,75 %
04.08.2023 10:12 17,1 C 18,9 C 13,9 C 92 % 1013,5 hPa 0,0 l/m 2 min 0 min 560 W/m 12,9 km/h (3 Bft) 97,87 %
04.08.2023 10:14 17,1 C 19,4 C 13,9 C 92 % 1013,4 hPa 0,0 l/m 2 min 0 min 598 W/m 3,2 km/h (1 Bft) 97,87 %
04.08.2023 10:16 17,1 C 20,6 C 13,9 C 92 % 1013,5 hPa 0,0 l/m 2 min 0 min 674 W/m 3,2 km/h (1 Bft) 97,87 %
04.08.2023 10:18 17,3 C 21,1 C 13,9 C 92 % 1013,5 hPa 0,0 l/m 2 min 0 min 689 W/m 9,7 km/h (2 Bft) 97,87 %
04.08.2023 10:20 17,4 C 21,1 C 13,9 C 92 % 1013,5 hPa 0,0 l/m 2 min 0 min 689 W/m 6,4 km/h (2 Bft) 95,74 %
04.08.2023 10:22 17,5 C 21,1 C 14,4 C 92 % 1013,5 hPa 0,0 l/m 2 min 0 min 441 W/m 6,4 km/h (2 Bft) 97,83 %
04.08.2023 10:24 17,6 C 20,6 C 14,4 C 91 % 1013,5 hPa 0,0 l/m 2 min 0 min 370 W/m 12,9 km/h (3 Bft) 97,87 %
04.08.2023 10:26 17,7 C 20,6 C 14,4 C 91 % 1013,5 hPa 0,0 l/m 2 min 0 min 353 W/m 6,4 km/h (2 Bft) 97,87 %
04.08.2023 10:28 17,8 C 21,1 C 14,4 C 91 % 1013,6 hPa 0,0 l/m 2 min 0 min 606 W/m 9,7 km/h (2 Bft) 95,74 %
04.08.2023 10:30 17,8 C 21,1 C 14,4 C 90 % 1013,6 hPa 0,0 l/m 2 min 0 min 578 W/m 6,4 km/h (2 Bft) 97,87 %
04.08.2023 10:32 17,9 C 21,1 C 14,4 C 90 % 1013,6 hPa 0,0 l/m 2 min 0 min 604 W/m 6,4 km/h (2 Bft) 97,87 %
04.08.2023 10:34 18,1 C 21,1 C 15,0 C 90 % 1013,6 hPa 0,0 l/m 2 min 0 min 751 W/m 12,9 km/h (3 Bft) 95,74 %
04.08.2023 10:36 18,1 C 20,6 C 15,0 C 89 % 1013,7 hPa 0,0 l/m 2 min 0 min 612 W/m 6,4 km/h (2 Bft) 97,83 %
04.08.2023 10:38 18,2 C 20,6 C 15,0 C 88 % 1013,6 hPa 0,0 l/m 2 min 0 min 458 W/m 9,7 km/h (2 Bft) 97,87 %
04.08.2023 10:40 18,2 C 21,1 C 15,0 C 88 % 1013,6 hPa 0,0 l/m 2 min 0 min 582 W/m 9,7 km/h (2 Bft) 97,87 %
04.08.2023 10:42 18,3 C 21,1 C 15,6 C 88 % 1013,6 hPa 0,0 l/m 2 min 0 min 671 W/m 12,9 km/h (3 Bft) 100,00 %
04.08.2023 10:44 18,4 C 21,1 C 15,6 C 87 % 1013,6 hPa 0,0 l/m 2 min 0 min 671 W/m 6,4 km/h (2 Bft) 100,00 %
04.08.2023 10:46 18,5 C 20,6 C 15,0 C 87 % 1013,7 hPa 0,0 l/m 2 min 0 min 409 W/m 6,4 km/h (2 Bft) 97,87 %
04.08.2023 10:48 18,5 C 20,0 C 15,0 C 86 % 1013,7 hPa 0,0 l/m 0 min 0 min 186 W/m 9,7 km/h (2 Bft) 100,00 %
04.08.2023 10:50 18,6 C 19,4 C 15,0 C 85 % 1013,7 hPa 0,0 l/m 0 min 0 min 186 W/m 6,4 km/h (2 Bft) 100,00 %
04.08.2023 10:52 18,6 C 18,9 C 15,0 C 85 % 1013,7 hPa 0,0 l/m 0 min 0 min 181 W/m 9,7 km/h (2 Bft) 100,00 %
04.08.2023 10:54 18,6 C 18,9 C 15,0 C 85 % 1013,7 hPa 0,0 l/m 0 min 0 min 173 W/m 6,4 km/h (2 Bft) 100,00 %
04.08.2023 10:56 18,6 C 18,9 C 14,4 C 85 % 1013,7 hPa 0,0 l/m 0 min 0 min 163 W/m 6,4 km/h (2 Bft) 100,00 %
04.08.2023 10:58 18,6 C 18,3 C 14,4 C 85 % 1013,8 hPa 0,0 l/m 0 min 0 min 177 W/m 6,4 km/h (2 Bft) 100,00 %
04.08.2023 11:00 18,6 C 18,3 C 14,4 C 85 % 1013,8 hPa 0,0 l/m 0 min 0 min 235 W/m 3,2 km/h (1 Bft) 100,00 %
04.08.2023 11:02 18,6 C 19,4 C 14,4 C 85 % 1013,8 hPa 0,0 l/m 0 min 0 min 280 W/m 0,0 km/h (0 Bft) 100,00 %
04.08.2023 11:04 18,6 C 20,0 C 15,0 C 85 % 1013,8 hPa 0,0 l/m 2 min 0 min 776 W/m 0,0 km/h (0 Bft) 100,00 %
04.08.2023 11:06 18,7 C 19,4 C 15,0 C 86 % 1013,8 hPa 0,0 l/m 0 min 0 min 250 W/m 9,7 km/h (2 Bft) 100,00 %
04.08.2023 11:08 18,7 C 18,9 C 15,0 C 85 % 1013,8 hPa 0,0 l/m 0 min 0 min 175 W/m 12,9 km/h (3 Bft) 100,00 %
04.08.2023 11:10 18,7 C 18,9 C 15,0 C 85 % 1013,8 hPa 0,0 l/m 0 min 0 min 156 W/m 6,4 km/h (2 Bft) 97,87 %
04.08.2023 11:12 18,7 C 18,9 C 14,4 C 85 % 1013,8 hPa 0,0 l/m 0 min 0 min 169 W/m 16,1 km/h (3 Bft) 100,00 %
04.08.2023 11:14 18,6 C 18,3 C 14,4 C 84 % 1013,8 hPa 0,0 l/m 0 min 0 min 193 W/m 9,7 km/h (2 Bft) 97,83 %
04.08.2023 11:16 18,6 C 18,3 C 14,4 C 85 % 1013,9 hPa 0,0 l/m 0 min 0 min 233 W/m 16,1 km/h (3 Bft) 97,87 %
04.08.2023 11:18 18,6 C 18,3 C 14,4 C 85 % 1013,9 hPa 0,0 l/m 0 min 0 min 274 W/m 16,1 km/h (3 Bft) 97,87 %
04.08.2023 11:20 18,6 C 18,9 C 14,4 C 85 % 1013,9 hPa 0,0 l/m 0 min 0 min 298 W/m 6,4 km/h (2 Bft) 97,87 %
04.08.2023 11:22 18,6 C 18,9 C 15,0 C 85 % 1013,9 hPa 0,0 l/m 0 min 0 min 309 W/m 6,4 km/h (2 Bft) 97,87 %
04.08.2023 11:24 18,6 C 18,9 C 15,0 C 85 % 1013,9 hPa 0,0 l/m 0 min 0 min 326 W/m 9,7 km/h (2 Bft) 97,87 %
04.08.2023 11:26 18,6 C 19,4 C 15,0 C 85 % 1013,9 hPa 0,0 l/m 2 min 0 min 363 W/m 6,4 km/h (2 Bft) 97,87 %
04.08.2023 11:28 18,6 C 20,0 C 15,6 C 85 % 1013,9 hPa 0,0 l/m 2 min 0 min 425 W/m 6,4 km/h (2 Bft) 97,83 %
04.08.2023 11:30 18,7 C 20,6 C 15,6 C 84 % 1013,9 hPa 0,0 l/m 2 min 0 min 420 W/m 6,4 km/h (2 Bft) 97,87 %
04.08.2023 11:32 18,8 C 21,1 C 15,6 C 85 % 1013,9 hPa 0,0 l/m 2 min 0 min 442 W/m 3,2 km/h (1 Bft) 97,87 %
04.08.2023 11:34 18,9 C 22,8 C 15,6 C 85 % 1013,9 hPa 0,0 l/m 2 min 0 min 561 W/m 3,2 km/h (1 Bft) 97,87 %
04.08.2023 11:36 19,1 C 24,4 C 16,1 C 85 % 1013,9 hPa 0,0 l/m 2 min 0 min 913 W/m 9,7 km/h (2 Bft) 95,74 %
04.08.2023 11:38 19,3 C 25,0 C 16,1 C 84 % 1013,9 hPa 0,0 l/m 2 min 0 min 899 W/m 6,4 km/h (2 Bft) 95,74 %
04.08.2023 11:40 19,4 C 25,0 C 16,1 C 83 % 1013,9 hPa 0,0 l/m 2 min 0 min 895 W/m 9,7 km/h (2 Bft) 97,87 %
04.08.2023 11:42 19,6 C 23,9 C 16,1 C 82 % 1013,9 hPa 0,0 l/m 2 min 0 min 909 W/m 12,9 km/h (3 Bft) 97,87 %
04.08.2023 11:44 19,7 C 22,2 C 16,1 C 82 % 1013,9 hPa 0,0 l/m 2 min 0 min 860 W/m 12,9 km/h (3 Bft) 95,65 %
04.08.2023 11:46 19,7 C 22,8 C 16,1 C 81 % 1013,9 hPa 0,0 l/m 2 min 0 min 367 W/m 6,4 km/h (2 Bft) 97,92 %
04.08.2023 11:48 19,7 C 22,8 C 16,1 C 82 % 1013,9 hPa 0,0 l/m 2 min 0 min 390 W/m 6,4 km/h (2 Bft) 97,87 %
04.08.2023 11:50 19,8 C 22,2 C 16,7 C 81 % 1013,9 hPa 0,0 l/m 2 min 0 min 449 W/m 6,4 km/h (2 Bft) 97,92 %
04.08.2023 11:52 19,9 C 22,2 C 16,7 C 81 % 1013,9 hPa 0,0 l/m 2 min 0 min 477 W/m 6,4 km/h (2 Bft) 97,87 %
04.08.2023 11:54 19,9 C 21,7 C 16,7 C 81 % 1013,9 hPa 0,0 l/m 2 min 0 min 429 W/m 9,7 km/h (2 Bft) 100,00 %
04.08.2023 11:56 19,9 C 21,1 C 16,7 C 80 % 1013,9 hPa 0,0 l/m 2 min 0 min 430 W/m 9,7 km/h (2 Bft) 97,87 %
04.08.2023 11:58 19,9 C 21,1 C 16,7 C 80 % 1013,9 hPa 0,0 l/m 2 min 0 min 402 W/m 12,9 km/h (3 Bft) 100,00 %
04.08.2023 12:00 19,9 C 20,6 C 16,1 C 78 % 1013,9 hPa 0,0 l/m 0 min 0 min 364 W/m 12,9 km/h (3 Bft) 100,00 %
04.08.2023 12:02 19,9 C 20,6 C 16,1 C 78 % 1014,0 hPa 0,0 l/m 0 min 0 min 348 W/m 9,7 km/h (2 Bft) 100,00 %
04.08.2023 12:04 19,9 C 20,6 C 16,1 C 78 % 1013,9 hPa 0,0 l/m 0 min 0 min 339 W/m 9,7 km/h (2 Bft) 100,00 %
04.08.2023 12:07 19,9 C 21,1 C 16,1 C 77 % 1013,9 hPa 0,0 l/m 0 min 0 min 359 W/m 12,9 km/h (3 Bft) 100,00 %
04.08.2023 12:08 19,9 C 20,6 C 16,1 C 77 % 1013,9 hPa 0,0 l/m 0 min 0 min 348 W/m 12,9 km/h (3 Bft) 98,95 %
04.08.2023 12:12 20,0 C 20,6 C 16,1 C 76 % 1013,9 hPa 0,0 l/m 0 min 0 min 338 W/m 3,2 km/h (1 Bft) 100,00 %
04.08.2023 12:14 20,0 C 20,6 C 16,1 C 77 % 1013,9 hPa 0,0 l/m 0 min 0 min 346 W/m 9,7 km/h (2 Bft) 100,00 %
04.08.2023 12:16 20,1 C 20,6 C 16,1 C 78 % 1013,9 hPa 0,0 l/m 0 min 0 min 366 W/m 6,4 km/h (2 Bft) 97,87 %
04.08.2023 12:18 20,1 C 20,6 C 16,1 C 78 % 1013,9 hPa 0,0 l/m 2 min 0 min 387 W/m 6,4 km/h (2 Bft) 97,83 %
04.08.2023 12:20 20,1 C 20,6 C 16,1 C 77 % 1013,9 hPa 0,0 l/m 2 min 0 min 394 W/m 6,4 km/h (2 Bft) 100,00 %
04.08.2023 12:22 20,1 C 20,6 C 16,1 C 77 % 1013,9 hPa 0,0 l/m 2 min 0 min 395 W/m 3,2 km/h (1 Bft) 100,00 %
04.08.2023 12:24 20,1 C 21,1 C 16,7 C 77 % 1013,9 hPa 0,0 l/m 2 min 0 min 396 W/m 3,2 km/h (1 Bft) 97,87 %
04.08.2023 12:26 20,2 C 21,1 C 16,7 C 77 % 1013,9 hPa 0,0 l/m 2 min 0 min 393 W/m 6,4 km/h (2 Bft) 95,74 %
04.08.2023 12:28 20,2 C 21,1 C 16,7 C 77 % 1013,9 hPa 0,0 l/m 2 min 0 min 396 W/m 6,4 km/h (2 Bft) 95,74 %
04.08.2023 12:30 20,2 C 21,1 C 16,7 C 77 % 1014,0 hPa 0,0 l/m 2 min 0 min 412 W/m 6,4 km/h (2 Bft) 91,49 %
04.08.2023 12:32 20,3 C 22,2 C 17,2 C 77 % 1013,9 hPa 0,0 l/m 2 min 0 min 470 W/m 12,9 km/h (3 Bft) 95,74 %
04.08.2023 12:34 20,3 C 22,2 C 17,2 C 76 % 1014,0 hPa 0,0 l/m 2 min 0 min 502 W/m 9,7 km/h (2 Bft) 95,65 %
04.08.2023 12:36 20,4 C 22,8 C 17,8 C 76 % 1014,0 hPa 0,0 l/m 2 min 0 min 570 W/m 9,7 km/h (2 Bft) 91,49 %
04.08.2023 12:38 20,5 C 22,8 C 17,8 C 77 % 1014,0 hPa 0,0 l/m 2 min 0 min 578 W/m 9,7 km/h (2 Bft) 95,74 %
04.08.2023 12:40 20,6 C 22,2 C 17,8 C 76 % 1014,0 hPa 0,0 l/m 2 min 0 min 408 W/m 9,7 km/h (2 Bft) 95,74 %
04.08.2023 12:42 20,4 C 21,1 C 17,2 C 74 % 1014,0 hPa 0,0 l/m 0 min 0 min 294 W/m 6,4 km/h (2 Bft) 93,62 %
04.08.2023 12:44 20,4 C 21,1 C 17,2 C 75 % 1013,9 hPa 0,0 l/m 0 min 0 min 291 W/m 3,2 km/h (1 Bft) 93,62 %
04.08.2023 12:46 20,4 C 21,1 C 16,7 C 76 % 1013,9 hPa 0,0 l/m 0 min 0 min 312 W/m 9,7 km/h (2 Bft) 95,74 %
04.08.2023 12:48 20,4 C 20,6 C 16,7 C 76 % 1014,0 hPa 0,0 l/m 0 min 0 min 323 W/m 9,7 km/h (2 Bft) 93,48 %
04.08.2023 12:50 20,3 C 20,6 C 16,7 C 75 % 1014,0 hPa 0,0 l/m 0 min 0 min 327 W/m 12,9 km/h (3 Bft) 95,74 %
04.08.2023 12:52 20,3 C 20,6 C 16,7 C 76 % 1014,0 hPa 0,0 l/m 0 min 0 min 365 W/m 3,2 km/h (1 Bft) 95,74 %
04.08.2023 12:54 20,3 C 21,1 C 16,7 C 76 % 1014,0 hPa 0,0 l/m 0 min 0 min 394 W/m 12,9 km/h (3 Bft) 97,87 %
04.08.2023 12:56 20,3 C 21,1 C 16,7 C 76 % 1014,0 hPa 0,0 l/m 2 min 0 min 409 W/m 9,7 km/h (2 Bft) 95,74 %
04.08.2023 12:58 20,3 C 21,1 C 16,7 C 75 % 1014,0 hPa 0,0 l/m 2 min 0 min 407 W/m 6,4 km/h (2 Bft) 95,74 %
04.08.2023 13:00 20,3 C 21,1 C 16,7 C 76 % 1014,0 hPa 0,0 l/m 2 min 0 min 457 W/m 16,1 km/h (3 Bft) 95,74 %
04.08.2023 13:02 20,3 C 21,7 C 17,2 C 75 % 1014,0 hPa 0,0 l/m 2 min 0 min 510 W/m 6,4 km/h (2 Bft) 95,65 %
04.08.2023 13:04 20,4 C 22,8 C 17,2 C 75 % 1014,0 hPa 0,0 l/m 2 min 0 min 1039 W/m 12,9 km/h (3 Bft) 95,74 %
04.08.2023 13:06 20,5 C 22,2 C 17,2 C 74 % 1014,0 hPa 0,0 l/m 0 min 0 min 336 W/m 9,7 km/h (2 Bft) 94,92 %
04.08.2023 13:08 20,6 C 21,1 C 17,2 C 73 % 1014,1 hPa 0,0 l/m 0 min 0 min 221 W/m 16,1 km/h (3 Bft) 100,00 %
04.08.2023 13:10 20,6 C 20,6 C 16,7 C 73 % 1014,1 hPa 0,0 l/m 0 min 0 min 210 W/m 9,7 km/h (2 Bft) 95,74 %
04.08.2023 13:12 20,5 C 20,6 C 16,7 C 73 % 1014,0 hPa 0,0 l/m 0 min 0 min 223 W/m 16,1 km/h (3 Bft) 95,74 %
04.08.2023 13:14 20,5 C 20,0 C 16,1 C 74 % 1014,1 hPa 0,0 l/m 0 min 0 min 235 W/m 9,7 km/h (2 Bft) 95,74 %
04.08.2023 13:16 20,3 C 20,0 C 16,1 C 72 % 1014,1 hPa 0,0 l/m 0 min 0 min 248 W/m 6,4 km/h (2 Bft) 97,83 %
04.08.2023 13:18 20,3 C 20,0 C 16,1 C 73 % 1014,2 hPa 0,0 l/m 0 min 0 min 286 W/m 9,7 km/h (2 Bft) 97,87 %
04.08.2023 13:20 20,2 C 20,6 C 16,1 C 73 % 1014,2 hPa 0,0 l/m 0 min 0 min 357 W/m 16,1 km/h (3 Bft) 97,87 %
04.08.2023 13:22 20,2 C 21,1 C 16,1 C 72 % 1014,2 hPa 0,0 l/m 2 min 0 min 903 W/m 12,9 km/h (3 Bft) 95,74 %
04.08.2023 13:24 20,3 C 21,1 C 16,7 C 72 % 1014,2 hPa 0,0 l/m 2 min 0 min 1025 W/m 3,2 km/h (1 Bft) 95,74 %
04.08.2023 13:26 20,3 C 21,1 C 16,7 C 73 % 1014,2 hPa 0,0 l/m 2 min 0 min 604 W/m 6,4 km/h (2 Bft) 95,74 %
04.08.2023 13:28 20,4 C 21,1 C 16,7 C 72 % 1014,2 hPa 0,0 l/m 2 min 0 min 457 W/m 16,1 km/h (3 Bft) 95,74 %
04.08.2023 13:30 20,4 C 21,1 C 16,7 C 72 % 1014,2 hPa 0,0 l/m 2 min 0 min 416 W/m 12,9 km/h (3 Bft) 95,65 %
04.08.2023 13:32 20,5 C 21,1 C 16,7 C 73 % 1014,2 hPa 0,0 l/m 2 min 0 min 428 W/m 12,9 km/h (3 Bft) 97,87 %
04.08.2023 13:34 20,6 C 21,1 C 16,7 C 73 % 1014,2 hPa 0,0 l/m 2 min 0 min 422 W/m 6,4 km/h (2 Bft) 97,87 %
04.08.2023 13:36 20,6 C 21,1 C 16,7 C 73 % 1014,2 hPa 0,0 l/m 0 min 0 min 374 W/m 12,9 km/h (3 Bft) 97,87 %
04.08.2023 13:38 20,6 C 21,1 C 16,7 C 73 % 1014,2 hPa 0,0 l/m 0 min 0 min 374 W/m 6,4 km/h (2 Bft) 97,87 %
04.08.2023 13:40 20,6 C 21,1 C 16,7 C 73 % 1014,2 hPa 0,0 l/m 2 min 0 min 410 W/m 16,1 km/h (3 Bft) 97,87 %
04.08.2023 13:42 20,7 C 21,7 C 17,2 C 74 % 1014,2 hPa 0,0 l/m 2 min 0 min 406 W/m 12,9 km/h (3 Bft) 97,87 %
04.08.2023 13:44 20,7 C 22,2 C 17,2 C 74 % 1014,2 hPa 0,0 l/m 2 min 0 min 422 W/m 6,4 km/h (2 Bft) 97,83 %
04.08.2023 13:46 20,8 C 22,2 C 17,2 C 74 % 1014,2 hPa 0,0 l/m 2 min 0 min 475 W/m 6,4 km/h (2 Bft) 97,87 %
04.08.2023 13:48 20,9 C 22,2 C 17,2 C 73 % 1014,2 hPa 0,0 l/m 2 min 0 min 446 W/m 12,9 km/h (3 Bft) 97,87 %
04.08.2023 13:50 20,9 C 22,2 C 17,2 C 74 % 1014,1 hPa 0,0 l/m 0 min 0 min 368 W/m 6,4 km/h (2 Bft) 97,87 %
04.08.2023 13:52 21,1 C 22,2 C 17,2 C 74 % 1014,1 hPa 0,0 l/m 0 min 0 min 345 W/m 12,9 km/h (3 Bft) 97,87 %
04.08.2023 13:54 21,1 C 22,2 C 17,2 C 74 % 1014,1 hPa 0,0 l/m 0 min 0 min 337 W/m 9,7 km/h (2 Bft) 97,87 %
04.08.2023 13:56 21,1 C 21,7 C 17,2 C 74 % 1014,1 hPa 0,0 l/m 0 min 0 min 324 W/m 12,9 km/h (3 Bft) 97,87 %
04.08.2023 13:58 21,1 C 21,7 C 17,2 C 73 % 1014,2 hPa 0,0 l/m 0 min 0 min 320 W/m 16,1 km/h (3 Bft) 97,83 %
04.08.2023 14:00 21,1 C 21,7 C 17,2 C 74 % 1014,1 hPa 0,0 l/m 0 min 0 min 306 W/m 9,7 km/h (2 Bft) 97,87 %
04.08.2023 14:02 21,1 C 21,7 C 17,2 C 74 % 1014,2 hPa 0,0 l/m 0 min 0 min 310 W/m 6,4 km/h (2 Bft) 100,00 %
04.08.2023 14:04 21,2 C 22,2 C 17,2 C 74 % 1014,2 hPa 0,0 l/m 0 min 0 min 323 W/m 9,7 km/h (2 Bft) 100,00 %
04.08.2023 14:06 21,2 C 24,4 C 17,2 C 74 % 1014,2 hPa 0,0 l/m 2 min 0 min 526 W/m 12,9 km/h (3 Bft) 100,00 %
04.08.2023 14:08 21,3 C 26,7 C 17,2 C 74 % 1014,2 hPa 0,0 l/m 2 min 0 min 943 W/m 12,9 km/h (3 Bft) 100,00 %
04.08.2023 14:10 21,4 C 28,3 C 17,2 C 73 % 1014,2 hPa 0,0 l/m 2 min 0 min 917 W/m 6,4 km/h (2 Bft) 100,00 %
04.08.2023 14:12 21,7 C 29,4 C 17,8 C 74 % 1014,2 hPa 0,0 l/m 2 min 0 min 910 W/m 6,4 km/h (2 Bft) 100,00 %
04.08.2023 14:14 21,8 C 28,9 C 17,8 C 71 % 1014,2 hPa 0,0 l/m 2 min 0 min 905 W/m 16,1 km/h (3 Bft) 100,00 %
04.08.2023 14:16 21,9 C 29,4 C 17,8 C 71 % 1014,1 hPa 0,0 l/m 2 min 0 min 916 W/m 12,9 km/h (3 Bft) 97,87 %
04.08.2023 14:18 22,1 C 28,9 C 17,8 C 71 % 1014,2 hPa 0,0 l/m 2 min 0 min 923 W/m 9,7 km/h (2 Bft) 98,18 %
04.08.2023 14:20 22,3 C 29,4 C 17,8 C 70 % 1014,2 hPa 0,0 l/m 2 min 0 min 916 W/m 16,1 km/h (3 Bft) 100,00 %
04.08.2023 14:22 22,3 C 28,9 C 17,8 C 69 % 1014,1 hPa 0,0 l/m 2 min 0 min 914 W/m 6,4 km/h (2 Bft) 100,00 %
04.08.2023 14:24 22,4 C 28,9 C 17,8 C 69 % 1014,2 hPa 0,0 l/m 2 min 0 min 929 W/m 19,3 km/h (3 Bft) 100,00 %
04.08.2023 14:26 22,5 C 28,9 C 17,8 C 69 % 1014,2 hPa 0,0 l/m 2 min 0 min 902 W/m 12,9 km/h (3 Bft) 100,00 %
04.08.2023 14:28 22,6 C 28,9 C 17,8 C 69 % 1014,2 hPa 0,0 l/m 2 min 0 min 872 W/m 12,9 km/h (3 Bft) 100,00 %
04.08.2023 14:30 22,7 C 28,3 C 17,8 C 68 % 1014,3 hPa 0,0 l/m 2 min 0 min 778 W/m 12,9 km/h (3 Bft) 97,37 %
04.08.2023 14:32 22,7 C 28,9 C 17,8 C 69 % 1014,2 hPa 0,0 l/m 2 min 0 min 601 W/m 9,7 km/h (2 Bft) 100,00 %
04.08.2023 14:34 22,8 C 30,0 C 18,3 C 68 % 1014,3 hPa 0,0 l/m 2 min 0 min 953 W/m 16,1 km/h (3 Bft) 100,00 %
04.08.2023 14:36 22,9 C 29,4 C 18,3 C 67 % 1014,3 hPa 0,0 l/m 2 min 0 min 934 W/m 9,7 km/h (2 Bft) 100,00 %
04.08.2023 14:38 23,0 C 30,0 C 18,3 C 68 % 1014,3 hPa 0,0 l/m 2 min 0 min 1028 W/m 12,9 km/h (3 Bft) 100,00 %
04.08.2023 14:40 23,1 C 30,0 C 18,3 C 67 % 1014,3 hPa 0,0 l/m 2 min 0 min 1067 W/m 6,4 km/h (2 Bft) 100,00 %
04.08.2023 14:42 23,2 C 27,8 C 18,3 C 67 % 1014,3 hPa 0,0 l/m 2 min 0 min 872 W/m 12,9 km/h (3 Bft) 100,00 %
04.08.2023 14:44 23,1 C 25,6 C 18,3 C 67 % 1014,3 hPa 0,0 l/m 0 min 0 min 336 W/m 9,7 km/h (2 Bft) 100,00 %
04.08.2023 14:46 22,9 C 23,9 C 17,8 C 68 % 1014,3 hPa 0,0 l/m 0 min 0 min 241 W/m 12,9 km/h (3 Bft) 100,00 %
04.08.2023 14:48 22,8 C 22,8 C 17,8 C 68 % 1014,3 hPa 0,0 l/m 0 min 0 min 223 W/m 6,4 km/h (2 Bft) 100,00 %
04.08.2023 14:50 22,6 C 23,3 C 17,8 C 69 % 1014,3 hPa 0,0 l/m 0 min 0 min 257 W/m 6,4 km/h (2 Bft) 100,00 %
04.08.2023 14:52 22,6 C 22,8 C 17,8 C 69 % 1014,3 hPa 0,0 l/m 0 min 0 min 306 W/m 9,7 km/h (2 Bft) 97,87 %
04.08.2023 14:54 22,5 C 22,8 C 17,8 C 69 % 1014,3 hPa 0,0 l/m 0 min 0 min 221 W/m 6,4 km/h (2 Bft) 97,87 %
04.08.2023 14:56 22,4 C 21,7 C 17,2 C 70 % 1014,3 hPa 0,0 l/m 0 min 0 min 162 W/m 19,3 km/h (3 Bft) 97,87 %
04.08.2023 14:58 22,1 C 20,6 C 16,7 C 69 % 1014,5 hPa 0,0 l/m 0 min 0 min 131 W/m 35,4 km/h (5 Bft) 97,87 %
04.08.2023 15:00 21,7 C 20,0 C 16,1 C 71 % 1014,5 hPa 0,0 l/m 0 min 0 min 113 W/m 25,7 km/h (4 Bft) 97,87 %
04.08.2023 15:02 21,4 C 20,0 C 16,1 C 72 % 1014,6 hPa 0,0 l/m 0 min 0 min 102 W/m 32,2 km/h (5 Bft) 93,48 %
04.08.2023 15:04 21,2 C 19,4 C 15,6 C 73 % 1014,6 hPa 0,0 l/m 0 min 2 min 84 W/m 16,1 km/h (3 Bft) 97,92 %
04.08.2023 15:06 20,9 C 19,4 C 15,6 C 75 % 1014,7 hPa 0,0 l/m 0 min 2 min 72 W/m 19,3 km/h (3 Bft) 97,87 %
04.08.2023 15:08 20,6 C 18,9 C 15,0 C 77 % 1014,8 hPa 0,0 l/m 0 min 2 min 70 W/m 22,5 km/h (4 Bft) 95,74 %
04.08.2023 15:10 20,3 C 18,3 C 14,4 C 78 % 1014,8 hPa 0,0 l/m 0 min 2 min 72 W/m 19,3 km/h (3 Bft) 98,15 %
04.08.2023 15:12 20,1 C 18,3 C 13,9 C 79 % 1014,8 hPa 0,0 l/m 0 min 2 min 77 W/m 22,5 km/h (4 Bft) 97,87 %
04.08.2023 15:14 19,8 C 17,8 C 13,3 C 80 % 1014,8 hPa 0,2 l/m 0 min 2 min 88 W/m 16,1 km/h (3 Bft) 97,87 %
04.08.2023 15:16 19,6 C 17,8 C 12,8 C 81 % 1014,8 hPa 0,0 l/m 0 min 2 min 103 W/m 6,4 km/h (2 Bft) 97,87 %
04.08.2023 15:18 19,4 C 17,8 C 12,8 C 83 % 1014,8 hPa 0,0 l/m 0 min 2 min 115 W/m 6,4 km/h (2 Bft) 97,87 %
04.08.2023 15:20 19,3 C 17,8 C 12,8 C 84 % 1014,7 hPa 0,0 l/m 0 min 2 min 135 W/m 3,2 km/h (1 Bft) 97,87 %
04.08.2023 15:22 19,2 C 17,8 C 12,8 C 84 % 1014,7 hPa 0,0 l/m 0 min 0 min 151 W/m 6,4 km/h (2 Bft) 95,65 %
04.08.2023 15:24 19,1 C 17,8 C 12,8 C 85 % 1014,7 hPa 0,0 l/m 0 min 2 min 166 W/m 6,4 km/h (2 Bft) 95,74 %
04.08.2023 15:26 18,9 C 17,8 C 12,8 C 86 % 1014,7 hPa 0,0 l/m 0 min 2 min 183 W/m 3,2 km/h (1 Bft) 100,00 %
04.08.2023 15:28 18,8 C 18,3 C 12,8 C 85 % 1014,7 hPa 0,0 l/m 0 min 2 min 209 W/m 3,2 km/h (1 Bft) 94,74 %
04.08.2023 15:30 18,8 C 18,3 C 13,3 C 87 % 1014,7 hPa 0,0 l/m 0 min 0 min 245 W/m 0,0 km/h (0 Bft) 95,74 %
04.08.2023 15:32 18,8 C 18,9 C 13,3 C 87 % 1014,7 hPa 0,0 l/m 0 min 0 min 275 W/m 3,2 km/h (1 Bft) 95,74 %
04.08.2023 15:34 18,8 C 18,9 C 13,3 C 87 % 1014,7 hPa 0,0 l/m 0 min 2 min 284 W/m 3,2 km/h (1 Bft) 95,74 %
04.08.2023 15:36 18,8 C 18,9 C 13,3 C 87 % 1014,7 hPa 0,0 l/m 0 min 2 min 286 W/m 6,4 km/h (2 Bft) 95,74 %
04.08.2023 15:38 18,8 C 18,9 C 13,3 C 87 % 1014,7 hPa 0,0 l/m 0 min 2 min 297 W/m 0,0 km/h (0 Bft) 95,74 %
04.08.2023 15:40 18,8 C 19,4 C 13,9 C 86 % 1014,7 hPa 0,0 l/m 0 min 0 min 356 W/m 0,0 km/h (0 Bft) 97,83 %
04.08.2023 15:42 18,8 C 20,6 C 13,9 C 86 % 1014,7 hPa 0,0 l/m 2 min 0 min 528 W/m 3,2 km/h (1 Bft) 95,74 %
04.08.2023 15:44 18,9 C 22,8 C 14,4 C 86 % 1014,7 hPa 0,0 l/m 2 min 0 min 722 W/m 0,0 km/h (0 Bft) 93,62 %
04.08.2023 15:46 19,1 C 23,9 C 15,0 C 86 % 1014,8 hPa 0,0 l/m 2 min 0 min 933 W/m 3,2 km/h (1 Bft) 95,74 %
04.08.2023 15:48 19,3 C 25,0 C 15,6 C 86 % 1014,7 hPa 0,0 l/m 2 min 0 min 860 W/m 6,4 km/h (2 Bft) 97,87 %
04.08.2023 15:50 19,4 C 23,9 C 15,6 C 85 % 1014,6 hPa 0,0 l/m 2 min 0 min 747 W/m 3,2 km/h (1 Bft) 97,87 %
04.08.2023 15:52 19,6 C 23,3 C 15,6 C 84 % 1014,6 hPa 0,0 l/m 2 min 0 min 657 W/m 6,4 km/h (2 Bft) 93,62 %
04.08.2023 15:54 19,8 C 25,0 C 15,6 C 83 % 1014,6 hPa 0,0 l/m 2 min 0 min 748 W/m 6,4 km/h (2 Bft) 97,83 %
04.08.2023 15:56 20,0 C 26,7 C 16,1 C 83 % 1014,6 hPa 0,0 l/m 2 min 0 min 876 W/m 6,4 km/h (2 Bft) 97,87 %
04.08.2023 15:58 20,2 C 27,2 C 16,1 C 83 % 1014,6 hPa 0,0 l/m 2 min 0 min 864 W/m 6,4 km/h (2 Bft) 95,74 %
04.08.2023 16:00 20,4 C 27,8 C 16,7 C 82 % 1014,6 hPa 0,0 l/m 2 min 0 min 867 W/m 6,4 km/h (2 Bft) 97,87 %
04.08.2023 16:02 20,6 C 26,1 C 16,7 C 81 % 1014,6 hPa 0,0 l/m 2 min 0 min 412 W/m 6,4 km/h (2 Bft) 93,62 %
04.08.2023 16:04 20,8 C 26,1 C 16,7 C 80 % 1014,6 hPa 0,0 l/m 2 min 0 min 379 W/m 3,2 km/h (1 Bft) 97,87 %
04.08.2023 16:06 21,0 C 24,4 C 16,7 C 80 % 1014,7 hPa 0,0 l/m 0 min 0 min 299 W/m 9,7 km/h (2 Bft) 96,55 %
04.08.2023 16:08 21,1 C 22,8 C 16,7 C 78 % 1014,7 hPa 0,0 l/m 0 min 0 min 155 W/m 9,7 km/h (2 Bft) 97,14 %
04.08.2023 16:10 21,1 C 21,7 C 16,7 C 79 % 1014,7 hPa 0,0 l/m 0 min 0 min 93 W/m 16,1 km/h (3 Bft) 97,87 %
04.08.2023 16:12 21,1 C 21,1 C 16,1 C 78 % 1014,6 hPa 0,0 l/m 0 min 0 min 81 W/m 12,9 km/h (3 Bft) 97,87 %
04.08.2023 16:14 21,1 C 20,6 C 16,1 C 78 % 1014,7 hPa 0,0 l/m 0 min 0 min 69 W/m 16,1 km/h (3 Bft) 97,87 %
04.08.2023 16:16 21,1 C 20,0 C 15,6 C 78 % 1014,7 hPa 0,2 l/m 0 min 2 min 59 W/m 9,7 km/h (2 Bft) 97,87 %
04.08.2023 16:18 20,9 C 19,4 C 15,6 C 80 % 1014,7 hPa 0,0 l/m 0 min 2 min 62 W/m 12,9 km/h (3 Bft) 95,74 %
04.08.2023 16:20 20,8 C 18,9 C 15,0 C 81 % 1014,8 hPa 0,0 l/m 0 min 2 min 78 W/m 6,4 km/h (2 Bft) 97,87 %
04.08.2023 16:22 20,6 C 18,9 C 13,9 C 83 % 1014,9 hPa 0,2 l/m 0 min 2 min 90 W/m 6,4 km/h (2 Bft) 97,83 %
04.08.2023 16:24 20,4 C 18,3 C 13,3 C 83 % 1014,9 hPa 0,6 l/m 0 min 2 min 100 W/m 9,7 km/h (2 Bft) 97,87 %
04.08.2023 16:26 20,2 C 18,3 C 12,8 C 84 % 1014,9 hPa 0,0 l/m 0 min 2 min 120 W/m 3,2 km/h (1 Bft) 97,87 %
04.08.2023 16:28 20,1 C 18,3 C 12,8 C 84 % 1014,9 hPa 0,0 l/m 0 min 0 min 147 W/m 3,2 km/h (1 Bft) 97,87 %
04.08.2023 16:30 19,9 C 18,3 C 12,8 C 85 % 1014,9 hPa 0,0 l/m 0 min 0 min 174 W/m 3,2 km/h (1 Bft) 97,87 %
04.08.2023 16:32 19,8 C 18,3 C 12,8 C 86 % 1014,9 hPa 0,0 l/m 0 min 0 min 199 W/m 3,2 km/h (1 Bft) 97,87 %
04.08.2023 16:34 19,7 C 18,9 C 13,3 C 86 % 1014,8 hPa 0,0 l/m 0 min 0 min 247 W/m 3,2 km/h (1 Bft) 95,74 %
04.08.2023 16:36 19,7 C 18,9 C 13,3 C 87 % 1014,8 hPa 0,0 l/m 0 min 0 min 217 W/m 3,2 km/h (1 Bft) 97,83 %
04.08.2023 16:38 19,7 C 18,9 C 13,3 C 88 % 1014,9 hPa 0,0 l/m 0 min 0 min 232 W/m 0,0 km/h (0 Bft) 97,87 %
04.08.2023 16:40 19,7 C 18,9 C 13,3 C 88 % 1014,9 hPa 0,0 l/m 0 min 0 min 249 W/m 3,2 km/h (1 Bft) 97,87 %
04.08.2023 16:42 19,7 C 19,4 C 13,3 C 89 % 1014,8 hPa 0,0 l/m 0 min 0 min 262 W/m 0,0 km/h (0 Bft) 97,87 %
04.08.2023 16:44 19,7 C 19,4 C 13,9 C 89 % 1014,8 hPa 0,0 l/m 2 min 0 min 333 W/m 6,4 km/h (2 Bft) 97,87 %
04.08.2023 16:46 19,6 C 20,0 C 13,3 C 89 % 1014,8 hPa 0,0 l/m 2 min 0 min 315 W/m 6,4 km/h (2 Bft) 95,74 %
04.08.2023 16:48 19,6 C 20,0 C 13,3 C 88 % 1014,8 hPa 0,0 l/m 2 min 0 min 319 W/m 6,4 km/h (2 Bft) 97,87 %
04.08.2023 16:50 19,6 C 20,6 C 13,3 C 88 % 1014,8 hPa 0,0 l/m 2 min 0 min 335 W/m 6,4 km/h (2 Bft) 97,83 %
04.08.2023 16:52 19,7 C 21,7 C 13,9 C 89 % 1014,9 hPa 0,0 l/m 2 min 0 min 469 W/m 6,4 km/h (2 Bft) 100,00 %
04.08.2023 16:54 19,7 C 21,7 C 13,9 C 88 % 1014,9 hPa 0,0 l/m 2 min 0 min 676 W/m 6,4 km/h (2 Bft) 100,00 %
04.08.2023 16:56 19,8 C 21,1 C 13,9 C 88 % 1014,8 hPa 0,0 l/m 0 min 0 min 215 W/m 9,7 km/h (2 Bft) 97,87 %
04.08.2023 16:58 19,9 C 20,6 C 13,9 C 88 % 1014,9 hPa 0,0 l/m 0 min 2 min 145 W/m 6,4 km/h (2 Bft) 100,00 %
04.08.2023 17:00 19,9 C 20,0 C 13,9 C 88 % 1014,9 hPa 0,2 l/m 0 min 2 min 128 W/m 6,4 km/h (2 Bft) 100,00 %
04.08.2023 17:02 19,9 C 19,4 C 13,3 C 88 % 1014,9 hPa 0,4 l/m 0 min 2 min 126 W/m 12,9 km/h (3 Bft) 100,00 %
04.08.2023 17:04 19,9 C 18,9 C 13,3 C 88 % 1015,0 hPa 0,6 l/m 0 min 2 min 121 W/m 12,9 km/h (3 Bft) 97,83 %
04.08.2023 17:06 19,8 C 18,3 C 13,3 C 88 % 1015,1 hPa 0,6 l/m 0 min 2 min 119 W/m 12,9 km/h (3 Bft) 98,31 %
04.08.2023 17:08 19,5 C 17,8 C 12,8 C 87 % 1015,0 hPa 0,4 l/m 0 min 2 min 138 W/m 9,7 km/h (2 Bft) 97,14 %
04.08.2023 17:10 19,3 C 17,8 C 12,8 C 88 % 1015,0 hPa 0,4 l/m 0 min 2 min 182 W/m 3,2 km/h (1 Bft) 100,00 %
04.08.2023 17:12 19,2 C 17,2 C 12,8 C 89 % 1015,1 hPa 1,6 l/m 0 min 2 min 203 W/m 16,1 km/h (3 Bft) 97,87 %
04.08.2023 17:14 18,9 C 16,1 C 12,2 C 88 % 1015,2 hPa 2,0 l/m 0 min 2 min 142 W/m 12,9 km/h (3 Bft) 100,00 %
04.08.2023 17:16 18,6 C 16,1 C 12,2 C 88 % 1015,1 hPa 0,6 l/m 0 min 2 min 152 W/m 6,4 km/h (2 Bft) 97,87 %
04.08.2023 17:18 18,4 C 17,2 C 12,2 C 89 % 1015,1 hPa 0,6 l/m 2 min 2 min 394 W/m 9,7 km/h (2 Bft) 100,00 %
04.08.2023 17:20 18,4 C 18,9 C 12,8 C 89 % 1015,0 hPa 0,2 l/m 2 min 2 min 650 W/m 9,7 km/h (2 Bft) 100,00 %
04.08.2023 17:22 18,4 C 20,0 C 12,8 C 90 % 1015,0 hPa 0,0 l/m 2 min 2 min 676 W/m 6,4 km/h (2 Bft) 100,00 %
04.08.2023 17:24 18,4 C 20,6 C 12,8 C 89 % 1014,9 hPa 0,0 l/m 2 min 2 min 637 W/m 12,9 km/h (3 Bft) 100,00 %
04.08.2023 17:26 18,5 C 20,6 C 12,8 C 90 % 1014,9 hPa 0,0 l/m 2 min 0 min 619 W/m 19,3 km/h (3 Bft) 97,87 %
04.08.2023 17:28 18,6 C 20,0 C 12,8 C 89 % 1014,9 hPa 0,0 l/m 2 min 0 min 441 W/m 6,4 km/h (2 Bft) 97,87 %
04.08.2023 17:30 18,7 C 19,4 C 12,8 C 89 % 1014,9 hPa 0,0 l/m 0 min 0 min 190 W/m 6,4 km/h (2 Bft) 97,87 %
04.08.2023 17:32 18,7 C 18,9 C 12,8 C 90 % 1014,9 hPa 0,0 l/m 0 min 0 min 171 W/m 0,0 km/h (0 Bft) 97,83 %
04.08.2023 17:34 18,8 C 18,3 C 12,8 C 90 % 1015,0 hPa 0,0 l/m 0 min 0 min 159 W/m 0,0 km/h (0 Bft) 97,87 %
04.08.2023 17:36 18,8 C 18,3 C 12,8 C 90 % 1015,0 hPa 0,0 l/m 0 min 0 min 144 W/m 12,9 km/h (3 Bft) 97,87 %
04.08.2023 17:38 18,8 C 18,3 C 12,8 C 90 % 1015,0 hPa 0,0 l/m 0 min 0 min 132 W/m 16,1 km/h (3 Bft) 95,74 %
04.08.2023 17:40 18,8 C 18,3 C 13,3 C 90 % 1015,0 hPa 0,0 l/m 0 min 0 min 120 W/m 9,7 km/h (2 Bft) 93,62 %
04.08.2023 17:42 18,8 C 18,3 C 13,3 C 90 % 1015,0 hPa 0,0 l/m 0 min 0 min 118 W/m 0,0 km/h (0 Bft) 95,74 %
04.08.2023 17:44 18,9 C 18,3 C 13,3 C 90 % 1015,0 hPa 0,0 l/m 0 min 0 min 125 W/m 3,2 km/h (1 Bft) 93,62 %
04.08.2023 17:46 18,9 C 18,3 C 13,3 C 90 % 1015,0 hPa 0,0 l/m 0 min 0 min 134 W/m 6,4 km/h (2 Bft) 95,65 %
04.08.2023 17:48 18,8 C 19,4 C 13,3 C 90 % 1015,0 hPa 0,0 l/m 0 min 0 min 130 W/m 3,2 km/h (1 Bft) 95,74 %
04.08.2023 17:50 18,8 C 21,1 C 13,3 C 90 % 1014,9 hPa 0,0 l/m 2 min 0 min 401 W/m 3,2 km/h (1 Bft) 96,00 %
04.08.2023 17:52 18,9 C 22,2 C 13,3 C 91 % 1015,0 hPa 0,0 l/m 2 min 0 min 501 W/m 3,2 km/h (1 Bft) 93,88 %
04.08.2023 17:54 19,1 C 23,3 C 13,3 C 91 % 1014,9 hPa 0,0 l/m 2 min 0 min 533 W/m 12,9 km/h (3 Bft) 97,14 %
04.08.2023 17:56 19,1 C 23,9 C 13,9 C 91 % 1014,9 hPa 0,0 l/m 2 min 0 min 527 W/m 19,3 km/h (3 Bft) 93,62 %
04.08.2023 17:58 19,1 C 23,3 C 13,3 C 90 % 1014,9 hPa 0,0 l/m 2 min 0 min 524 W/m 16,1 km/h (3 Bft) 95,74 %
04.08.2023 18:00 19,1 C 22,2 C 12,8 C 89 % 1015,0 hPa 0,0 l/m 0 min 0 min 138 W/m 19,3 km/h (3 Bft) 97,87 %
04.08.2023 18:02 19,1 C 20,6 C 12,8 C 87 % 1015,0 hPa 0,0 l/m 0 min 0 min 121 W/m 19,3 km/h (3 Bft) 97,87 %
04.08.2023 18:04 19,1 C 20,0 C 12,2 C 86 % 1015,0 hPa 0,0 l/m 0 min 0 min 113 W/m 12,9 km/h (3 Bft) 95,92 %
04.08.2023 18:07 19,1 C 19,4 C 12,8 C 86 % 1015,1 hPa 0,0 l/m 0 min 0 min 125 W/m 19,3 km/h (3 Bft) 95,92 %
04.08.2023 18:08 19,1 C 19,4 C 12,2 C 86 % 1015,2 hPa 0,0 l/m 0 min 0 min 127 W/m 19,3 km/h (3 Bft) 97,85 %
04.08.2023 18:12 19,1 C 18,9 C 12,8 C 86 % 1015,2 hPa 0,0 l/m 0 min 0 min 112 W/m 3,2 km/h (1 Bft) 97,22 %
04.08.2023 18:14 19,1 C 19,4 C 12,8 C 87 % 1015,3 hPa 0,0 l/m 0 min 0 min 137 W/m 3,2 km/h (1 Bft) 97,87 %
04.08.2023 18:16 19,0 C 20,6 C 12,8 C 87 % 1015,2 hPa 0,0 l/m 2 min 0 min 448 W/m 16,1 km/h (3 Bft) 97,87 %
04.08.2023 18:18 19,1 C 22,2 C 13,3 C 88 % 1015,2 hPa 0,0 l/m 2 min 0 min 479 W/m 6,4 km/h (2 Bft) 97,87 %
04.08.2023 18:20 19,3 C 23,3 C 13,3 C 89 % 1015,3 hPa 0,0 l/m 2 min 0 min 508 W/m 3,2 km/h (1 Bft) 95,74 %
04.08.2023 18:22 19,4 C 23,9 C 13,9 C 88 % 1015,2 hPa 0,0 l/m 2 min 0 min 479 W/m 9,7 km/h (2 Bft) 95,65 %
04.08.2023 18:24 19,6 C 23,9 C 13,9 C 88 % 1015,2 hPa 0,0 l/m 2 min 0 min 393 W/m 9,7 km/h (2 Bft) 95,74 %
04.08.2023 18:26 19,8 C 24,4 C 13,9 C 87 % 1015,2 hPa 0,0 l/m 2 min 0 min 398 W/m 6,4 km/h (2 Bft) 97,87 %
04.08.2023 18:28 19,9 C 23,9 C 13,3 C 86 % 1015,2 hPa 0,0 l/m 2 min 0 min 385 W/m 3,2 km/h (1 Bft) 100,00 %
04.08.2023 18:30 20,1 C 24,4 C 13,9 C 86 % 1015,3 hPa 0,2 l/m 2 min 0 min 412 W/m 6,4 km/h (2 Bft) 100,00 %
04.08.2023 18:32 20,3 C 25,0 C 13,9 C 86 % 1015,3 hPa 0,0 l/m 2 min 0 min 422 W/m 9,7 km/h (2 Bft) 100,00 %
04.08.2023 18:34 20,4 C 25,0 C 13,3 C 84 % 1015,3 hPa 0,0 l/m 2 min 0 min 390 W/m 19,3 km/h (3 Bft) 97,87 %
04.08.2023 18:36 20,4 C 24,4 C 13,3 C 83 % 1015,3 hPa 0,0 l/m 2 min 0 min 304 W/m 9,7 km/h (2 Bft) 100,00 %
04.08.2023 18:38 20,5 C 24,4 C 13,3 C 81 % 1015,4 hPa 0,0 l/m 2 min 0 min 306 W/m 16,1 km/h (3 Bft) 100,00 %
04.08.2023 18:40 20,5 C 24,4 C 13,3 C 80 % 1015,4 hPa 0,0 l/m 2 min 0 min 378 W/m 16,1 km/h (3 Bft) 100,00 %
04.08.2023 18:42 20,5 C 23,3 C 12,8 C 79 % 1015,4 hPa 0,0 l/m 2 min 0 min 210 W/m 6,4 km/h (2 Bft) 97,87 %
04.08.2023 18:44 20,4 C 21,7 C 12,2 C 78 % 1015,4 hPa 0,0 l/m 0 min 0 min 105 W/m 12,9 km/h (3 Bft) 100,00 %
04.08.2023 18:46 20,4 C 21,1 C 12,2 C 77 % 1015,4 hPa 0,0 l/m 0 min 0 min 137 W/m 9,7 km/h (2 Bft) 100,00 %
04.08.2023 18:48 20,3 C 20,6 C 12,2 C 77 % 1015,4 hPa 0,0 l/m 0 min 0 min 126 W/m 16,1 km/h (3 Bft) 97,87 %
04.08.2023 18:50 20,2 C 20,6 C 12,2 C 78 % 1015,4 hPa 0,0 l/m 2 min 0 min 206 W/m 3,2 km/h (1 Bft) 97,87 %
04.08.2023 18:52 20,2 C 20,0 C 12,2 C 79 % 1015,5 hPa 0,0 l/m 0 min 0 min 82 W/m 0,0 km/h (0 Bft) 97,83 %
04.08.2023 18:54 20,1 C 19,4 C 12,8 C 80 % 1015,4 hPa 0,0 l/m 0 min 0 min 73 W/m 3,2 km/h (1 Bft) 97,87 %
04.08.2023 18:56 20,1 C 18,9 C 12,8 C 81 % 1015,5 hPa 0,0 l/m 0 min 0 min 72 W/m 6,4 km/h (2 Bft) 97,87 %
04.08.2023 18:58 20,0 C 18,9 C 12,8 C 81 % 1015,5 hPa 0,0 l/m 0 min 0 min 78 W/m 3,2 km/h (1 Bft) 97,87 %
04.08.2023 19:00 19,9 C 18,3 C 12,2 C 81 % 1015,5 hPa 0,0 l/m 0 min 0 min 84 W/m 3,2 km/h (1 Bft) 97,87 %
04.08.2023 19:02 19,8 C 18,3 C 12,2 C 81 % 1015,5 hPa 0,0 l/m 0 min 0 min 93 W/m 6,4 km/h (2 Bft) 97,87 %
04.08.2023 19:04 19,7 C 18,3 C 12,2 C 81 % 1015,5 hPa 0,0 l/m 0 min 0 min 99 W/m 6,4 km/h (2 Bft) 97,96 %
04.08.2023 19:06 19,6 C 18,3 C 12,2 C 82 % 1015,5 hPa 0,0 l/m 0 min 0 min 105 W/m 0,0 km/h (0 Bft) 98,08 %
04.08.2023 19:08 19,6 C 18,3 C 12,2 C 82 % 1015,5 hPa 0,0 l/m 0 min 0 min 111 W/m 3,2 km/h (1 Bft) 97,87 %
04.08.2023 19:10 19,5 C 18,3 C 12,2 C 82 % 1015,6 hPa 0,0 l/m 0 min 0 min 141 W/m 6,4 km/h (2 Bft) 97,83 %
04.08.2023 19:12 19,4 C 18,3 C 12,2 C 81 % 1015,6 hPa 0,0 l/m 0 min 0 min 104 W/m 6,4 km/h (2 Bft) 97,87 %
04.08.2023 19:14 19,3 C 18,3 C 12,2 C 81 % 1015,7 hPa 0,0 l/m 0 min 0 min 100 W/m 3,2 km/h (1 Bft) 97,87 %
04.08.2023 19:16 19,3 C 18,3 C 12,2 C 81 % 1015,7 hPa 0,0 l/m 0 min 0 min 100 W/m 3,2 km/h (1 Bft) 95,74 %
04.08.2023 19:18 19,3 C 18,3 C 12,2 C 81 % 1015,6 hPa 0,0 l/m 0 min 0 min 101 W/m 6,4 km/h (2 Bft) 95,74 %
04.08.2023 19:20 19,2 C 18,3 C 12,2 C 81 % 1015,6 hPa 0,0 l/m 0 min 0 min 104 W/m 6,4 km/h (2 Bft) 97,87 %
04.08.2023 19:22 19,2 C 18,3 C 12,2 C 81 % 1015,6 hPa 0,0 l/m 0 min 0 min 99 W/m 0,0 km/h (0 Bft) 97,87 %
04.08.2023 19:24 19,2 C 18,3 C 12,2 C 83 % 1015,6 hPa 0,0 l/m 0 min 0 min 91 W/m 0,0 km/h (0 Bft) 97,83 %
04.08.2023 19:26 19,2 C 18,3 C 12,2 C 83 % 1015,6 hPa 0,0 l/m 0 min 0 min 83 W/m 3,2 km/h (1 Bft) 93,62 %
04.08.2023 19:28 19,2 C 18,3 C 12,2 C 84 % 1015,6 hPa 0,0 l/m 0 min 0 min 78 W/m 6,4 km/h (2 Bft) 93,62 %
04.08.2023 19:30 19,2 C 18,3 C 12,2 C 84 % 1015,7 hPa 0,0 l/m 0 min 0 min 79 W/m 0,0 km/h (0 Bft) 95,74 %
04.08.2023 19:32 19,2 C 18,3 C 12,2 C 84 % 1015,7 hPa 0,0 l/m 0 min 0 min 79 W/m 0,0 km/h (0 Bft) 93,62 %
04.08.2023 19:34 19,2 C 18,3 C 12,8 C 85 % 1015,7 hPa 0,0 l/m 0 min 0 min 76 W/m 0,0 km/h (0 Bft) 95,74 %
04.08.2023 19:36 19,2 C 18,3 C 12,8 C 85 % 1015,6 hPa 0,0 l/m 0 min 0 min 69 W/m 0,0 km/h (0 Bft) 95,74 %
04.08.2023 19:38 19,1 C 17,8 C 12,8 C 86 % 1015,6 hPa 0,0 l/m 0 min 0 min 61 W/m 0,0 km/h (0 Bft) 95,65 %
04.08.2023 19:40 19,1 C 17,8 C 12,2 C 86 % 1015,6 hPa 0,0 l/m 0 min 0 min 60 W/m 3,2 km/h (1 Bft) 97,87 %
04.08.2023 19:42 19,1 C 17,8 C 12,2 C 86 % 1015,6 hPa 0,0 l/m 0 min 0 min 63 W/m 3,2 km/h (1 Bft) 97,87 %
04.08.2023 19:44 19,0 C 17,8 C 12,8 C 86 % 1015,7 hPa 0,0 l/m 0 min 0 min 69 W/m 0,0 km/h (0 Bft) 97,87 %
04.08.2023 19:46 18,9 C 17,8 C 12,8 C 86 % 1015,7 hPa 0,0 l/m 0 min 0 min 82 W/m 0,0 km/h (0 Bft) 95,74 %
04.08.2023 19:48 18,9 C 18,3 C 12,8 C 87 % 1015,7 hPa 0,0 l/m 0 min 0 min 95 W/m 0,0 km/h (0 Bft) 97,87 %
04.08.2023 19:50 18,9 C 18,3 C 12,8 C 87 % 1015,7 hPa 0,0 l/m 0 min 0 min 95 W/m 0,0 km/h (0 Bft) 97,87 %
04.08.2023 19:52 18,9 C 18,3 C 12,8 C 87 % 1015,8 hPa 0,0 l/m 0 min 0 min 94 W/m 3,2 km/h (1 Bft) 97,83 %
04.08.2023 19:54 18,9 C 18,3 C 12,8 C 87 % 1015,8 hPa 0,0 l/m 2 min 0 min 100 W/m 6,4 km/h (2 Bft) 95,74 %
04.08.2023 19:56 18,9 C 18,3 C 12,8 C 86 % 1015,8 hPa 0,0 l/m 2 min 0 min 93 W/m 0,0 km/h (0 Bft) 97,22 %
04.08.2023 19:58 18,9 C 18,9 C 12,8 C 86 % 1015,8 hPa 0,0 l/m 0 min 0 min 88 W/m 0,0 km/h (0 Bft) 98,31 %
04.08.2023 20:00 18,9 C 18,3 C 12,8 C 87 % 1015,9 hPa 0,0 l/m 0 min 0 min 80 W/m 0,0 km/h (0 Bft) 100,00 %
04.08.2023 20:02 19,0 C 18,3 C 12,8 C 87 % 1015,9 hPa 0,0 l/m 0 min 0 min 74 W/m 0,0 km/h (0 Bft) 100,00 %
04.08.2023 20:04 19,0 C 18,3 C 12,8 C 87 % 1015,9 hPa 0,0 l/m 0 min 0 min 68 W/m 3,2 km/h (1 Bft) 97,92 %
04.08.2023 20:06 19,0 C 18,3 C 12,8 C 87 % 1015,9 hPa 0,0 l/m 0 min 0 min 67 W/m 3,2 km/h (1 Bft) 100,00 %
04.08.2023 20:08 19,0 C 18,3 C 12,8 C 87 % 1015,9 hPa 0,0 l/m 0 min 0 min 64 W/m 3,2 km/h (1 Bft) 100,00 %
04.08.2023 20:10 18,9 C 18,3 C 12,8 C 87 % 1015,9 hPa 0,0 l/m 0 min 0 min 63 W/m 6,4 km/h (2 Bft) 100,00 %
04.08.2023 20:12 18,9 C 18,3 C 12,2 C 86 % 1015,9 hPa 0,0 l/m 0 min 0 min 59 W/m 3,2 km/h (1 Bft) 100,00 %
04.08.2023 20:14 18,9 C 18,3 C 12,8 C 86 % 1016,0 hPa 0,0 l/m 0 min 0 min 53 W/m 3,2 km/h (1 Bft) 100,00 %
04.08.2023 20:16 18,9 C 18,3 C 12,2 C 86 % 1015,9 hPa 0,0 l/m 0 min 0 min 50 W/m 3,2 km/h (1 Bft) 100,00 %
04.08.2023 20:18 18,8 C 17,8 C 12,2 C 86 % 1016,0 hPa 0,0 l/m 0 min 0 min 42 W/m 3,2 km/h (1 Bft) 100,00 %
04.08.2023 20:20 18,8 C 17,8 C 12,2 C 86 % 1016,0 hPa 0,0 l/m 0 min 0 min 38 W/m 0,0 km/h (0 Bft) 100,00 %
04.08.2023 20:22 18,8 C 17,8 C 12,2 C 86 % 1016,1 hPa 0,0 l/m 0 min 0 min 34 W/m 0,0 km/h (0 Bft) 100,00 %
04.08.2023 20:24 18,8 C 17,8 C 12,2 C 86 % 1016,1 hPa 0,0 l/m 0 min 0 min 32 W/m 0,0 km/h (0 Bft) 97,87 %
04.08.2023 20:26 18,8 C 17,8 C 12,8 C 87 % 1016,1 hPa 0,0 l/m 0 min 0 min 27 W/m 0,0 km/h (0 Bft) 97,87 %
04.08.2023 20:28 18,8 C 17,2 C 12,8 C 87 % 1016,1 hPa 0,0 l/m 0 min 0 min 23 W/m 0,0 km/h (0 Bft) 97,87 %
04.08.2023 20:30 18,8 C 17,2 C 12,2 C 87 % 1016,1 hPa 0,0 l/m 0 min 0 min 19 W/m 3,2 km/h (1 Bft) 97,87 %
04.08.2023 20:32 18,7 C 17,2 C 12,2 C 87 % 1016,2 hPa 0,0 l/m 0 min 0 min 19 W/m 6,4 km/h (2 Bft) 97,87 %
04.08.2023 20:34 18,7 C 17,2 C 12,2 C 87 % 1016,2 hPa 0,0 l/m 0 min 0 min 23 W/m 0,0 km/h (0 Bft) 95,74 %
04.08.2023 20:36 18,6 C 17,2 C 12,2 C 87 % 1016,2 hPa 0,0 l/m 0 min 0 min 28 W/m 6,4 km/h (2 Bft) 97,83 %
04.08.2023 20:38 18,6 C 17,2 C 12,2 C 87 % 1016,3 hPa 0,0 l/m 0 min 0 min 25 W/m 3,2 km/h (1 Bft) 97,87 %
04.08.2023 20:40 18,6 C 17,2 C 12,2 C 87 % 1016,2 hPa 0,0 l/m 0 min 0 min 21 W/m 0,0 km/h (0 Bft) 95,74 %
04.08.2023 20:42 18,6 C 17,2 C 12,2 C 87 % 1016,3 hPa 0,0 l/m 0 min 0 min 18 W/m 0,0 km/h (0 Bft) 97,87 %
04.08.2023 20:44 18,6 C 16,7 C 12,2 C 87 % 1016,3 hPa 0,0 l/m 0 min 0 min 15 W/m 0,0 km/h (0 Bft) 97,87 %
04.08.2023 20:46 18,6 C 16,7 C 12,2 C 87 % 1016,3 hPa 0,0 l/m 0 min 0 min 12 W/m 0,0 km/h (0 Bft) 95,74 %
04.08.2023 20:48 18,5 C 16,7 C 12,2 C 87 % 1016,3 hPa 0,0 l/m 0 min 0 min 12 W/m 0,0 km/h (0 Bft) 97,87 %
04.08.2023 20:50 18,5 C 16,7 C 12,2 C 88 % 1016,3 hPa 0,0 l/m 0 min 0 min 11 W/m 0,0 km/h (0 Bft) 97,83 %
04.08.2023 20:52 18,4 C 16,7 C 12,2 C 88 % 1016,3 hPa 0,0 l/m 0 min 0 min 10 W/m 3,2 km/h (1 Bft) 95,83 %
04.08.2023 20:54 18,4 C 16,7 C 12,2 C 88 % 1016,3 hPa 0,0 l/m 0 min 0 min 9 W/m 3,2 km/h (1 Bft) 95,65 %
04.08.2023 20:56 18,4 C 16,7 C 12,2 C 88 % 1016,3 hPa 0,0 l/m 0 min 0 min 9 W/m 3,2 km/h (1 Bft) 97,30 %
04.08.2023 20:58 18,3 C 16,7 C 12,2 C 88 % 1016,3 hPa 0,0 l/m 0 min 0 min 8 W/m 0,0 km/h (0 Bft) 97,87 %
04.08.2023 21:00 18,3 C 16,7 C 12,2 C 88 % 1016,4 hPa 0,0 l/m 0 min 0 min 7 W/m 0,0 km/h (0 Bft) 97,87 %
04.08.2023 21:02 18,3 C 16,7 C 12,2 C 88 % 1016,4 hPa 0,0 l/m 0 min 0 min 7 W/m 0,0 km/h (0 Bft) 97,87 %
04.08.2023 21:04 18,2 C 16,7 C 12,2 C 88 % 1016,4 hPa 0,0 l/m 0 min 0 min 7 W/m 6,4 km/h (2 Bft) 97,92 %
04.08.2023 21:06 18,2 C 16,7 C 12,2 C 88 % 1016,4 hPa 0,0 l/m 0 min 0 min 6 W/m 0,0 km/h (0 Bft) 98,28 %
04.08.2023 21:08 18,2 C 16,7 C 12,2 C 88 % 1016,4 hPa 0,0 l/m 0 min 0 min 5 W/m 0,0 km/h (0 Bft) 97,22 %
04.08.2023 21:10 18,2 C 16,7 C 12,2 C 88 % 1016,4 hPa 0,0 l/m 0 min 0 min 5 W/m 0,0 km/h (0 Bft) 97,87 %
04.08.2023 21:12 18,1 C 16,7 C 12,2 C 88 % 1016,4 hPa 0,0 l/m 0 min 0 min 6 W/m 0,0 km/h (0 Bft) 91,49 %
04.08.2023 21:14 18,1 C 16,7 C 12,2 C 88 % 1016,4 hPa 0,0 l/m 0 min 0 min 6 W/m 0,0 km/h (0 Bft) 100,00 %
04.08.2023 21:16 18,1 C 16,7 C 12,2 C 88 % 1016,5 hPa 0,0 l/m 0 min 0 min 5 W/m 0,0 km/h (0 Bft) 100,00 %
04.08.2023 21:18 18,1 C 16,7 C 11,7 C 89 % 1016,5 hPa 0,0 l/m 0 min 0 min 5 W/m 6,4 km/h (2 Bft) 100,00 %
04.08.2023 21:20 18,0 C 16,7 C 12,2 C 88 % 1016,5 hPa 0,0 l/m 0 min 0 min 0 W/m 3,2 km/h (1 Bft) 100,00 %
04.08.2023 21:22 17,9 C 16,7 C 12,2 C 88 % 1016,6 hPa 0,0 l/m 0 min 0 min 0 W/m 0,0 km/h (0 Bft) 97,87 %
04.08.2023 21:24 17,9 C 16,7 C 12,2 C 88 % 1016,5 hPa 0,0 l/m 0 min 0 min 0 W/m 0,0 km/h (0 Bft) 95,74 %
04.08.2023 21:26 17,9 C 16,7 C 12,2 C 89 % 1016,6 hPa 0,0 l/m 0 min 0 min 0 W/m 0,0 km/h (0 Bft) 95,74 %
04.08.2023 21:28 17,9 C 16,7 C 12,2 C 89 % 1016,5 hPa 0,0 l/m 0 min 0 min 0 W/m 0,0 km/h (0 Bft) 97,87 %
04.08.2023 21:30 17,9 C 16,1 C 12,2 C 89 % 1016,6 hPa 0,0 l/m 0 min 0 min 0 W/m 0,0 km/h (0 Bft) 97,87 %
04.08.2023 21:32 17,8 C 16,1 C 12,2 C 89 % 1016,5 hPa 0,0 l/m 0 min 0 min 0 W/m 0,0 km/h (0 Bft) 97,83 %
04.08.2023 21:34 17,8 C 16,1 C 12,2 C 89 % 1016,6 hPa 0,0 l/m 0 min 0 min 0 W/m 0,0 km/h (0 Bft) 95,74 %
04.08.2023 21:36 17,8 C 16,1 C 12,8 C 89 % 1016,6 hPa 0,0 l/m 0 min 0 min 0 W/m 0,0 km/h (0 Bft) 97,87 %
04.08.2023 21:38 17,8 C 16,1 C 12,8 C 89 % 1016,6 hPa 0,0 l/m 0 min 0 min 0 W/m 0,0 km/h (0 Bft) 95,74 %
04.08.2023 21:40 17,8 C 16,1 C 12,2 C 90 % 1016,7 hPa 0,0 l/m 0 min 0 min 0 W/m 0,0 km/h (0 Bft) 91,49 %
04.08.2023 21:42 17,7 C 16,1 C 12,2 C 90 % 1016,7 hPa 0,0 l/m 0 min 0 min 0 W/m 0,0 km/h (0 Bft) 95,74 %
04.08.2023 21:44 17,7 C 15,6 C 12,2 C 90 % 1016,7 hPa 0,0 l/m 0 min 0 min 0 W/m 0,0 km/h (0 Bft) 95,74 %
04.08.2023 21:46 17,7 C 15,6 C 12,2 C 90 % 1016,7 hPa 0,0 l/m 0 min 0 min 0 W/m 0,0 km/h (0 Bft) 93,62 %
04.08.2023 21:48 17,6 C 15,6 C 12,2 C 90 % 1016,7 hPa 0,0 l/m 0 min 0 min 0 W/m 0,0 km/h (0 Bft) 95,65 %
04.08.2023 21:50 17,6 C 15,6 C 12,2 C 90 % 1016,7 hPa 0,0 l/m 0 min 0 min 0 W/m 0,0 km/h (0 Bft) 93,62 %
04.08.2023 21:52 17,5 C 15,6 C 12,2 C 90 % 1016,7 hPa 0,0 l/m 0 min 0 min 0 W/m 0,0 km/h (0 Bft) 93,62 %
04.08.2023 21:54 17,5 C 15,6 C 12,2 C 90 % 1016,8 hPa 0,0 l/m 0 min 0 min 0 W/m 0,0 km/h (0 Bft) 93,62 %
04.08.2023 21:56 17,4 C 15,6 C 12,2 C 90 % 1016,7 hPa 0,0 l/m 0 min 0 min 0 W/m 0,0 km/h (0 Bft) 97,87 %
04.08.2023 21:58 17,4 C 15,6 C 12,2 C 90 % 1016,7 hPa 0,0 l/m 0 min 0 min 0 W/m 0,0 km/h (0 Bft) 97,87 %
04.08.2023 22:00 17,4 C 15,6 C 12,2 C 91 % 1016,8 hPa 0,0 l/m 0 min 0 min 0 W/m 0,0 km/h (0 Bft) 97,87 %
04.08.2023 22:02 17,3 C 15,6 C 12,2 C 91 % 1016,7 hPa 0,0 l/m 0 min 0 min 0 W/m 0,0 km/h (0 Bft) 95,65 %
04.08.2023 22:04 17,3 C 15,6 C 12,2 C 91 % 1016,7 hPa 0,0 l/m 0 min 0 min 0 W/m 0,0 km/h (0 Bft) 95,92 %
04.08.2023 22:06 17,2 C 15,0 C 12,2 C 91 % 1016,8 hPa 0,0 l/m 0 min 0 min 0 W/m 0,0 km/h (0 Bft) 97,87 %
04.08.2023 22:08 17,2 C 15,0 C 11,7 C 91 % 1016,8 hPa 0,0 l/m 0 min 0 min 0 W/m 0,0 km/h (0 Bft) 97,87 %
04.08.2023 22:10 17,1 C 15,0 C 11,7 C 91 % 1016,8 hPa 0,0 l/m 0 min 0 min 0 W/m 0,0 km/h (0 Bft) 95,74 %
04.08.2023 22:12 17,1 C 15,0 C 11,7 C 91 % 1016,9 hPa 0,0 l/m 0 min 0 min 0 W/m 0,0 km/h (0 Bft) 95,74 %
04.08.2023 22:14 17,1 C 15,0 C 11,7 C 91 % 1016,9 hPa 0,0 l/m 0 min 0 min 0 W/m 0,0 km/h (0 Bft) 97,87 %
04.08.2023 22:16 17,0 C 15,0 C 11,7 C 91 % 1016,8 hPa 0,0 l/m 0 min 0 min 0 W/m 0,0 km/h (0 Bft) 95,65 %
04.08.2023 22:18 16,9 C 15,0 C 11,7 C 91 % 1016,9 hPa 0,0 l/m 0 min 0 min 0 W/m 0,0 km/h (0 Bft) 95,74 %
04.08.2023 22:20 16,9 C 15,0 C 11,7 C 91 % 1016,8 hPa 0,0 l/m 0 min 0 min 0 W/m 0,0 km/h (0 Bft) 100,00 %
04.08.2023 22:22 16,8 C 15,0 C 11,7 C 92 % 1016,9 hPa 0,0 l/m 0 min 0 min 0 W/m 0,0 km/h (0 Bft) 100,00 %
04.08.2023 22:24 16,8 C 15,0 C 11,7 C 92 % 1016,8 hPa 0,0 l/m 0 min 0 min 0 W/m 0,0 km/h (0 Bft) 97,87 %
04.08.2023 22:26 16,7 C 15,0 C 11,7 C 92 % 1016,8 hPa 0,0 l/m 0 min 0 min 0 W/m 0,0 km/h (0 Bft) 100,00 %
04.08.2023 22:28 16,7 C 15,0 C 11,7 C 92 % 1016,9 hPa 0,0 l/m 0 min 0 min 0 W/m 0,0 km/h (0 Bft) 100,00 %
04.08.2023 22:30 16,7 C 15,0 C 11,7 C 92 % 1016,9 hPa 0,0 l/m 0 min 0 min 0 W/m 0,0 km/h (0 Bft) 97,83 %
04.08.2023 22:32 16,6 C 15,0 C 11,7 C 93 % 1016,9 hPa 0,0 l/m 0 min 0 min 0 W/m 0,0 km/h (0 Bft) 100,00 %
04.08.2023 22:34 16,6 C 15,0 C 11,7 C 93 % 1016,9 hPa 0,0 l/m 0 min 0 min 0 W/m 0,0 km/h (0 Bft) 97,87 %
04.08.2023 22:36 16,6 C 15,0 C 11,7 C 93 % 1017,0 hPa 0,0 l/m 0 min 0 min 0 W/m 0,0 km/h (0 Bft) 97,87 %
04.08.2023 22:38 16,6 C 15,0 C 11,7 C 93 % 1016,9 hPa 0,0 l/m 0 min 0 min 0 W/m 0,0 km/h (0 Bft) 100,00 %
04.08.2023 22:40 16,6 C 15,0 C 11,7 C 93 % 1017,0 hPa 0,0 l/m 0 min 0 min 0 W/m 0,0 km/h (0 Bft) 100,00 %
04.08.2023 22:42 16,5 C 15,0 C 11,7 C 93 % 1017,0 hPa 0,0 l/m 0 min 0 min 0 W/m 0,0 km/h (0 Bft) 97,87 %
04.08.2023 22:44 16,4 C 15,0 C 11,7 C 93 % 1017,0 hPa 0,0 l/m 0 min 0 min 0 W/m 0,0 km/h (0 Bft) 97,83 %
04.08.2023 22:46 16,4 C 15,0 C 11,7 C 93 % 1017,0 hPa 0,0 l/m 0 min 0 min 0 W/m 0,0 km/h (0 Bft) 100,00 %
04.08.2023 22:48 16,4 C 15,0 C 11,7 C 93 % 1017,0 hPa 0,0 l/m 0 min 0 min 0 W/m 0,0 km/h (0 Bft) 95,74 %
04.08.2023 22:50 16,4 C 15,0 C 11,7 C 93 % 1017,0 hPa 0,0 l/m 0 min 0 min 0 W/m 0,0 km/h (0 Bft) 100,00 %
04.08.2023 22:52 16,4 C 15,0 C 11,7 C 93 % 1017,0 hPa 0,0 l/m 0 min 0 min 0 W/m 0,0 km/h (0 Bft) 100,00 %
04.08.2023 22:54 16,3 C 15,0 C 11,7 C 93 % 1017,1 hPa 0,0 l/m 0 min 0 min 0 W/m 3,2 km/h (1 Bft) 95,74 %
04.08.2023 22:56 16,3 C 15,0 C 11,7 C 93 % 1017,1 hPa 0,0 l/m 0 min 0 min 0 W/m 0,0 km/h (0 Bft) 100,00 %
04.08.2023 22:58 16,3 C 15,6 C 11,7 C 93 % 1017,1 hPa 0,0 l/m 0 min 0 min 0 W/m 0,0 km/h (0 Bft) 95,65 %
04.08.2023 23:00 16,3 C 15,0 C 11,7 C 93 % 1017,1 hPa 0,0 l/m 0 min 0 min 0 W/m 0,0 km/h (0 Bft) 95,74 %
04.08.2023 23:02 16,3 C 15,0 C 11,7 C 93 % 1017,1 hPa 0,0 l/m 0 min 0 min 0 W/m 0,0 km/h (0 Bft) 100,00 %
04.08.2023 23:04 16,3 C 15,0 C 11,7 C 93 % 1017,2 hPa 0,0 l/m 0 min 0 min 0 W/m 0,0 km/h (0 Bft) 97,96 %
04.08.2023 23:06 16,3 C 15,0 C 11,7 C 93 % 1017,2 hPa 0,0 l/m 0 min 0 min 0 W/m 0,0 km/h (0 Bft) 97,87 %
04.08.2023 23:08 16,2 C 15,0 C 11,7 C 93 % 1017,2 hPa 0,0 l/m 0 min 0 min 0 W/m 0,0 km/h (0 Bft) 100,00 %
04.08.2023 23:10 16,2 C 15,0 C 11,1 C 93 % 1017,2 hPa 0,0 l/m 0 min 0 min 0 W/m 0,0 km/h (0 Bft) 95,74 %
04.08.2023 23:12 16,2 C 15,0 C 11,1 C 93 % 1017,2 hPa 0,0 l/m 0 min 0 min 0 W/m 0,0 km/h (0 Bft) 95,65 %
04.08.2023 23:14 16,2 C 15,0 C 11,1 C 93 % 1017,2 hPa 0,0 l/m 0 min 0 min 0 W/m 0,0 km/h (0 Bft) 97,87 %
04.08.2023 23:16 16,2 C 15,0 C 11,1 C 93 % 1017,2 hPa 0,0 l/m 0 min 0 min 0 W/m 0,0 km/h (0 Bft) 97,87 %
04.08.2023 23:18 16,2 C 15,0 C 11,1 C 93 % 1017,2 hPa 0,0 l/m 0 min 0 min 0 W/m 0,0 km/h (0 Bft) 95,74 %
04.08.2023 23:20 16,2 C 15,0 C 11,1 C 93 % 1017,2 hPa 0,0 l/m 0 min 0 min 0 W/m 0,0 km/h (0 Bft) 97,87 %
04.08.2023 23:22 16,2 C 15,0 C 11,1 C 93 % 1017,3 hPa 0,0 l/m 0 min 0 min 0 W/m 0,0 km/h (0 Bft) 97,87 %
04.08.2023 23:24 16,1 C 15,0 C 11,1 C 93 % 1017,3 hPa 0,0 l/m 0 min 0 min 0 W/m 0,0 km/h (0 Bft) 95,74 %
04.08.2023 23:26 16,1 C 15,0 C 11,1 C 93 % 1017,3 hPa 0,0 l/m 0 min 0 min 0 W/m 0,0 km/h (0 Bft) 97,83 %
04.08.2023 23:28 16,1 C 15,0 C 11,1 C 93 % 1017,3 hPa 0,0 l/m 0 min 0 min 0 W/m 0,0 km/h (0 Bft) 97,87 %
04.08.2023 23:30 16,1 C 15,0 C 11,1 C 93 % 1017,3 hPa 0,0 l/m 0 min 0 min 0 W/m 0,0 km/h (0 Bft) 95,74 %
04.08.2023 23:32 16,1 C 15,0 C 11,1 C 93 % 1017,3 hPa 0,0 l/m 0 min 0 min 0 W/m 6,4 km/h (2 Bft) 95,74 %
04.08.2023 23:34 16,1 C 15,0 C 11,7 C 93 % 1017,3 hPa 0,0 l/m 0 min 0 min 0 W/m 3,2 km/h (1 Bft) 95,74 %
04.08.2023 23:36 16,1 C 15,0 C 11,7 C 93 % 1017,4 hPa 0,0 l/m 0 min 0 min 0 W/m 0,0 km/h (0 Bft) 93,62 %
04.08.2023 23:38 16,0 C 15,0 C 11,7 C 93 % 1017,4 hPa 0,0 l/m 0 min 0 min 0 W/m 0,0 km/h (0 Bft) 95,74 %
04.08.2023 23:40 16,0 C 15,0 C 11,7 C 93 % 1017,4 hPa 0,0 l/m 0 min 0 min 0 W/m 0,0 km/h (0 Bft) 97,87 %
04.08.2023 23:42 16,0 C 15,0 C 11,7 C 93 % 1017,4 hPa 0,0 l/m 0 min 0 min 0 W/m 0,0 km/h (0 Bft) 95,65 %
04.08.2023 23:44 16,0 C 15,0 C 11,7 C 93 % 1017,4 hPa 0,0 l/m 0 min 0 min 0 W/m 0,0 km/h (0 Bft) 95,74 %
04.08.2023 23:46 15,9 C 15,0 C 11,7 C 93 % 1017,4 hPa 0,0 l/m 0 min 0 min 0 W/m 0,0 km/h (0 Bft) 95,74 %
04.08.2023 23:48 15,9 C 15,0 C 11,7 C 93 % 1017,4 hPa 0,0 l/m 0 min 0 min 0 W/m 0,0 km/h (0 Bft) 95,74 %
04.08.2023 23:50 15,9 C 15,0 C 11,7 C 93 % 1017,5 hPa 0,0 l/m 0 min 0 min 0 W/m 0,0 km/h (0 Bft) 95,74 %
04.08.2023 23:52 16,0 C 15,0 C 11,7 C 93 % 1017,5 hPa 0,0 l/m 0 min 0 min 0 W/m 0,0 km/h (0 Bft) 97,87 %
04.08.2023 23:54 15,9 C 15,0 C 11,7 C 93 % 1017,5 hPa 0,0 l/m 0 min 0 min 0 W/m 0,0 km/h (0 Bft) 95,74 %
04.08.2023 23:56 15,9 C 15,0 C 11,7 C 93 % 1017,5 hPa 0,0 l/m 0 min 0 min 0 W/m 0,0 km/h (0 Bft) 97,83 %
04.08.2023 23:58 15,9 C 15,0 C 11,7 C 93 % 1017,5 hPa 0,0 l/m 0 min 0 min 0 W/m 0,0 km/h (0 Bft) 97,87 %
_ Min-Zeit 06:16 05:30 05:30 14:36 00:08 - - - - 00:00 01:50
Minimum _ 14,3 C 13,3 C 10,6 C 67 % 1009,6 hPa - - - - 0,0 km/h (0 Bft) 51,16 %
_ Max-Zeit 14:42 14:34 14:34 06:07 23:50 17:14 09:52 15:04 14:40 14:58 00:42
Maximum _ 23,2 C 30,0 C 18,3 C 97 % 1017,5 hPa 2,0 l/m 2 min 2 min 1067 W/m 35,4 km/h
NW (5 Bft)
100,00 %
Durchschnitt _ 17,4 C 17,5 C 13,0 C 89 % 1013,6 hPa #9,0 l/m #4:28 h #1:10 h 261 W/m 4,9 km/h (1 Bft) 97,40 %
© 2023 W. Hausmann